<?xml version='1.0' encoding='UTF-8'?><gpx version="1.1" creator="JPX - https://github.com/jenetics/jpx" xmlns="http://www.topografix.com/GPX/1/1"><trk><trkseg><trkpt lat="51.4209967" lon="-0.089795"><ele>99.0</ele><time>2026-04-15T08:57:32.078Z</time></trkpt><trkpt lat="51.42104" lon="-0.089895"><ele>99.0</ele><time>2026-04-15T08:57:34.076Z</time></trkpt><trkpt lat="51.42112" lon="-0.0901"><ele>99.0</ele><time>2026-04-15T08:57:36.076Z</time></trkpt><trkpt lat="51.42118" lon="-0.0902467"><ele>99.0</ele><time>2026-04-15T08:57:37.075Z</time></trkpt><trkpt lat="51.4212433" lon="-0.090405"><ele>99.0</ele><time>2026-04-15T08:57:38.076Z</time></trkpt><trkpt lat="51.4213067" lon="-0.0905533"><ele>99.0</ele><time>2026-04-15T08:57:39.075Z</time></trkpt><trkpt lat="51.4213683" lon="-0.090685"><ele>99.0</ele><time>2026-04-15T08:57:40.075Z</time></trkpt><trkpt lat="51.4214233" lon="-0.0908183"><ele>99.0</ele><time>2026-04-15T08:57:41.076Z</time></trkpt><trkpt lat="51.421475" lon="-0.0909433"><ele>99.0</ele><time>2026-04-15T08:57:42.076Z</time></trkpt><trkpt lat="51.4215267" lon="-0.091065"><ele>98.6</ele><time>2026-04-15T08:57:43.076Z</time></trkpt><trkpt lat="51.4215817" lon="-0.0911883"><ele>98.2</ele><time>2026-04-15T08:57:44.075Z</time></trkpt><trkpt lat="51.4216433" lon="-0.0913167"><ele>97.8</ele><time>2026-04-15T08:57:45.075Z</time></trkpt><trkpt lat="51.4217033" lon="-0.0914317"><ele>97.39999999999999</ele><time>2026-04-15T08:57:46.077Z</time></trkpt><trkpt lat="51.4217633" lon="-0.0915433"><ele>97.0</ele><time>2026-04-15T08:57:47.076Z</time></trkpt><trkpt lat="51.421825" lon="-0.09165"><ele>96.16666666666667</ele><time>2026-04-15T08:57:48.075Z</time></trkpt><trkpt lat="51.4218867" lon="-0.091755"><ele>95.33333333333334</ele><time>2026-04-15T08:57:49.075Z</time></trkpt><trkpt lat="51.4219483" lon="-0.0918533"><ele>94.5</ele><time>2026-04-15T08:57:50.075Z</time></trkpt><trkpt lat="51.4220117" lon="-0.0919433"><ele>93.66666666666667</ele><time>2026-04-15T08:57:51.076Z</time></trkpt><trkpt lat="51.42208" lon="-0.0920283"><ele>92.83333333333334</ele><time>2026-04-15T08:57:52.075Z</time></trkpt><trkpt lat="51.4221433" lon="-0.0921017"><ele>92.0</ele><time>2026-04-15T08:57:53.076Z</time></trkpt><trkpt lat="51.422225" lon="-0.092185"><ele>91.83333333333334</ele><time>2026-04-15T08:57:55.077Z</time></trkpt><trkpt lat="51.4223133" lon="-0.09228"><ele>91.66666666666667</ele><time>2026-04-15T08:57:58.077Z</time></trkpt><trkpt lat="51.422405" lon="-0.0924217"><ele>91.5</ele><time>2026-04-15T08:58:00.077Z</time></trkpt><trkpt lat="51.4224517" lon="-0.0925083"><ele>91.33333333333333</ele><time>2026-04-15T08:58:01.076Z</time></trkpt><trkpt lat="51.4224917" lon="-0.0925967"><ele>91.16666666666666</ele><time>2026-04-15T08:58:02.076Z</time></trkpt><trkpt lat="51.4225267" lon="-0.0926867"><ele>91.0</ele><time>2026-04-15T08:58:03.076Z</time></trkpt><trkpt lat="51.422555" lon="-0.0927783"><ele>90.5</ele><time>2026-04-15T08:58:04.077Z</time></trkpt><trkpt lat="51.42258" lon="-0.0928733"><ele>90.0</ele><time>2026-04-15T08:58:05.076Z</time></trkpt><trkpt lat="51.4226" lon="-0.09298"><ele>89.5</ele><time>2026-04-15T08:58:06.077Z</time></trkpt><trkpt lat="51.4226217" lon="-0.093095"><ele>89.0</ele><time>2026-04-15T08:58:07.075Z</time></trkpt><trkpt lat="51.42265" lon="-0.0932267"><ele>88.5</ele><time>2026-04-15T08:58:08.076Z</time></trkpt><trkpt lat="51.4226767" lon="-0.0933717"><ele>88.0</ele><time>2026-04-15T08:58:09.079Z</time></trkpt><trkpt lat="51.4227083" lon="-0.09352"><ele>87.66666666666666</ele><time>2026-04-15T08:58:10.076Z</time></trkpt><trkpt lat="51.4227317" lon="-0.093655"><ele>87.33333333333333</ele><time>2026-04-15T08:58:11.076Z</time></trkpt><trkpt lat="51.4227517" lon="-0.093785"><ele>87.0</ele><time>2026-04-15T08:58:12.076Z</time></trkpt><trkpt lat="51.422765" lon="-0.0939067"><ele>86.66666666666667</ele><time>2026-04-15T08:58:13.075Z</time></trkpt><trkpt lat="51.4227733" lon="-0.0940333"><ele>86.33333333333334</ele><time>2026-04-15T08:58:14.076Z</time></trkpt><trkpt lat="51.422775" lon="-0.09415"><ele>86.0</ele><time>2026-04-15T08:58:15.075Z</time></trkpt><trkpt lat="51.42278" lon="-0.094275"><ele>85.5</ele><time>2026-04-15T08:58:16.078Z</time></trkpt><trkpt lat="51.4227883" lon="-0.0943933"><ele>85.0</ele><time>2026-04-15T08:58:17.076Z</time></trkpt><trkpt lat="51.4227917" lon="-0.0945"><ele>84.5</ele><time>2026-04-15T08:58:18.077Z</time></trkpt><trkpt lat="51.4228167" lon="-0.0946533"><ele>84.0</ele><time>2026-04-15T08:58:20.076Z</time></trkpt><trkpt lat="51.4228833" lon="-0.094715"><ele>83.5</ele><time>2026-04-15T08:58:22.077Z</time></trkpt><trkpt lat="51.4229733" lon="-0.094665"><ele>83.0</ele><time>2026-04-15T08:58:24.077Z</time></trkpt><trkpt lat="51.42303" lon="-0.0945933"><ele>83.16666666666667</ele><time>2026-04-15T08:58:25.077Z</time></trkpt><trkpt lat="51.4230833" lon="-0.094495"><ele>83.33333333333334</ele><time>2026-04-15T08:58:26.075Z</time></trkpt><trkpt lat="51.423135" lon="-0.0944"><ele>83.5</ele><time>2026-04-15T08:58:27.075Z</time></trkpt><trkpt lat="51.4231933" lon="-0.0943067"><ele>83.66666666666667</ele><time>2026-04-15T08:58:29.076Z</time></trkpt><trkpt lat="51.4232383" lon="-0.09423"><ele>83.83333333333333</ele><time>2026-04-15T09:00:17.079Z</time></trkpt><trkpt lat="51.423295" lon="-0.0941167"><ele>84.0</ele><time>2026-04-15T09:00:19.08Z</time></trkpt><trkpt lat="51.423365" lon="-0.0939817"><ele>84.0</ele><time>2026-04-15T09:00:21.079Z</time></trkpt><trkpt lat="51.4234233" lon="-0.0938767"><ele>84.0</ele><time>2026-04-15T09:00:23.08Z</time></trkpt><trkpt lat="51.4234867" lon="-0.0937517"><ele>84.0</ele><time>2026-04-15T09:00:26.078Z</time></trkpt><trkpt lat="51.42354" lon="-0.09366"><ele>84.0</ele><time>2026-04-15T09:00:27.078Z</time></trkpt><trkpt lat="51.4236083" lon="-0.0935333"><ele>84.0</ele><time>2026-04-15T09:00:28.078Z</time></trkpt><trkpt lat="51.4236917" lon="-0.093385"><ele>84.0</ele><time>2026-04-15T09:00:29.079Z</time></trkpt><trkpt lat="51.4237717" lon="-0.09324"><ele>84.0</ele><time>2026-04-15T09:00:30.079Z</time></trkpt><trkpt lat="51.42384" lon="-0.093115"><ele>84.0</ele><time>2026-04-15T09:00:31.079Z</time></trkpt><trkpt lat="51.4238967" lon="-0.0930083"><ele>84.0</ele><time>2026-04-15T09:00:32.077Z</time></trkpt><trkpt lat="51.4239467" lon="-0.0929167"><ele>84.0</ele><time>2026-04-15T09:00:33.079Z</time></trkpt><trkpt lat="51.4239917" lon="-0.09283"><ele>84.0</ele><time>2026-04-15T09:00:34.079Z</time></trkpt><trkpt lat="51.424035" lon="-0.0927417"><ele>84.0</ele><time>2026-04-15T09:00:35.079Z</time></trkpt><trkpt lat="51.4240817" lon="-0.0926567"><ele>84.0</ele><time>2026-04-15T09:00:36.077Z</time></trkpt><trkpt lat="51.4241583" lon="-0.0925233"><ele>84.0</ele><time>2026-04-15T09:00:38.078Z</time></trkpt><trkpt lat="51.4242267" lon="-0.0923867"><ele>84.0</ele><time>2026-04-15T09:00:40.08Z</time></trkpt><trkpt lat="51.4243117" lon="-0.0922367"><ele>83.71428571428571</ele><time>2026-04-15T09:00:42.078Z</time></trkpt><trkpt lat="51.4243617" lon="-0.09216"><ele>83.42857142857143</ele><time>2026-04-15T09:00:43.081Z</time></trkpt><trkpt lat="51.4244133" lon="-0.0920883"><ele>83.14285714285714</ele><time>2026-04-15T09:00:44.079Z</time></trkpt><trkpt lat="51.4244633" lon="-0.092015"><ele>82.85714285714286</ele><time>2026-04-15T09:00:45.076Z</time></trkpt><trkpt lat="51.4245133" lon="-0.09194"><ele>82.57142857142857</ele><time>2026-04-15T09:00:46.078Z</time></trkpt><trkpt lat="51.42456" lon="-0.09187"><ele>82.28571428571428</ele><time>2026-04-15T09:00:47.08Z</time></trkpt><trkpt lat="51.4246033" lon="-0.0917967"><ele>82.0</ele><time>2026-04-15T09:00:48.079Z</time></trkpt><trkpt lat="51.42465" lon="-0.0917133"><ele>81.66666666666666</ele><time>2026-04-15T09:00:49.081Z</time></trkpt><trkpt lat="51.4247033" lon="-0.0916283"><ele>81.33333333333333</ele><time>2026-04-15T09:00:50.079Z</time></trkpt><trkpt lat="51.4247617" lon="-0.091545"><ele>81.0</ele><time>2026-04-15T09:00:51.079Z</time></trkpt><trkpt lat="51.4248167" lon="-0.091465"><ele>80.66666666666667</ele><time>2026-04-15T09:00:52.077Z</time></trkpt><trkpt lat="51.42488" lon="-0.0913717"><ele>80.33333333333334</ele><time>2026-04-15T09:00:53.079Z</time></trkpt><trkpt lat="51.42496" lon="-0.09126"><ele>80.0</ele><time>2026-04-15T09:00:54.079Z</time></trkpt><trkpt lat="51.425045" lon="-0.0911383"><ele>78.4</ele><time>2026-04-15T09:00:55.08Z</time></trkpt><trkpt lat="51.425125" lon="-0.0910267"><ele>76.8</ele><time>2026-04-15T09:00:56.078Z</time></trkpt><trkpt lat="51.4251933" lon="-0.090935"><ele>75.2</ele><time>2026-04-15T09:00:57.078Z</time></trkpt><trkpt lat="51.4252633" lon="-0.090855"><ele>73.6</ele><time>2026-04-15T09:00:58.17Z</time></trkpt><trkpt lat="51.4253333" lon="-0.09078"><ele>72.0</ele><time>2026-04-15T09:00:59.077Z</time></trkpt><trkpt lat="51.4254067" lon="-0.0907"><ele>71.0</ele><time>2026-04-15T09:01:00.078Z</time></trkpt><trkpt lat="51.425475" lon="-0.090625"><ele>70.0</ele><time>2026-04-15T09:01:01.078Z</time></trkpt><trkpt lat="51.4255383" lon="-0.0905467"><ele>69.0</ele><time>2026-04-15T09:01:02.078Z</time></trkpt><trkpt lat="51.4256033" lon="-0.0904767"><ele>68.0</ele><time>2026-04-15T09:01:03.078Z</time></trkpt><trkpt lat="51.4256717" lon="-0.0904067"><ele>67.0</ele><time>2026-04-15T09:01:04.078Z</time></trkpt><trkpt lat="51.4257417" lon="-0.0903267"><ele>66.0</ele><time>2026-04-15T09:01:05.078Z</time></trkpt><trkpt lat="51.42581" lon="-0.0902517"><ele>65.5</ele><time>2026-04-15T09:01:06.078Z</time></trkpt><trkpt lat="51.42587" lon="-0.0901783"><ele>65.0</ele><time>2026-04-15T09:01:07.078Z</time></trkpt><trkpt lat="51.4259233" lon="-0.090115"><ele>64.5</ele><time>2026-04-15T09:01:08.078Z</time></trkpt><trkpt lat="51.4260133" lon="-0.0900167"><ele>64.0</ele><time>2026-04-15T09:01:10.079Z</time></trkpt><trkpt lat="51.4261" lon="-0.0899317"><ele>63.5</ele><time>2026-04-15T09:01:12.079Z</time></trkpt><trkpt lat="51.426155" lon="-0.0898733"><ele>63.0</ele><time>2026-04-15T09:01:15.078Z</time></trkpt><trkpt lat="51.4262233" lon="-0.0898083"><ele>62.599999999999994</ele><time>2026-04-15T09:01:35.077Z</time></trkpt><trkpt lat="51.426275" lon="-0.0897233"><ele>62.199999999999996</ele><time>2026-04-15T09:01:44.075Z</time></trkpt><trkpt lat="51.4263467" lon="-0.0896283"><ele>61.8</ele><time>2026-04-15T09:01:46.076Z</time></trkpt><trkpt lat="51.4264317" lon="-0.0895383"><ele>61.4</ele><time>2026-04-15T09:01:47.076Z</time></trkpt><trkpt lat="51.426525" lon="-0.089435"><ele>61.0</ele><time>2026-04-15T09:01:48.075Z</time></trkpt><trkpt lat="51.42661" lon="-0.089345"><ele>60.8</ele><time>2026-04-15T09:01:49.076Z</time></trkpt><trkpt lat="51.426695" lon="-0.0892667"><ele>60.599999999999994</ele><time>2026-04-15T09:01:50.075Z</time></trkpt><trkpt lat="51.426765" lon="-0.0892133"><ele>60.4</ele><time>2026-04-15T09:01:51.076Z</time></trkpt><trkpt lat="51.426875" lon="-0.0891867"><ele>60.2</ele><time>2026-04-15T09:01:53.075Z</time></trkpt><trkpt lat="51.4269517" lon="-0.0892733"><ele>60.0</ele><time>2026-04-15T09:01:55.075Z</time></trkpt><trkpt lat="51.4269883" lon="-0.0895717"><ele>60.0</ele><time>2026-04-15T09:01:57.074Z</time></trkpt><trkpt lat="51.4270133" lon="-0.089835"><ele>60.0</ele><time>2026-04-15T09:01:58.076Z</time></trkpt><trkpt lat="51.4270417" lon="-0.0900167"><ele>60.0</ele><time>2026-04-15T09:01:59.078Z</time></trkpt><trkpt lat="51.4270717" lon="-0.0902333"><ele>60.0</ele><time>2026-04-15T09:02:00.075Z</time></trkpt><trkpt lat="51.4271017" lon="-0.0904067"><ele>60.25</ele><time>2026-04-15T09:02:01.076Z</time></trkpt><trkpt lat="51.4271383" lon="-0.0905817"><ele>60.5</ele><time>2026-04-15T09:02:02.076Z</time></trkpt><trkpt lat="51.4271783" lon="-0.090775"><ele>60.75</ele><time>2026-04-15T09:02:03.075Z</time></trkpt><trkpt lat="51.4272067" lon="-0.0909717"><ele>61.0</ele><time>2026-04-15T09:02:04.075Z</time></trkpt><trkpt lat="51.4272367" lon="-0.0911783"><ele>60.25</ele><time>2026-04-15T09:02:05.076Z</time></trkpt><trkpt lat="51.4272767" lon="-0.0913883"><ele>59.5</ele><time>2026-04-15T09:02:06.076Z</time></trkpt><trkpt lat="51.4273167" lon="-0.0915917"><ele>58.75</ele><time>2026-04-15T09:02:07.075Z</time></trkpt><trkpt lat="51.42736" lon="-0.0917917"><ele>58.0</ele><time>2026-04-15T09:02:08.075Z</time></trkpt><trkpt lat="51.427395" lon="-0.09199"><ele>58.0</ele><time>2026-04-15T09:02:09.076Z</time></trkpt><trkpt lat="51.42743" lon="-0.0921717"><ele>58.0</ele><time>2026-04-15T09:02:10.076Z</time></trkpt><trkpt lat="51.42746" lon="-0.0923433"><ele>58.0</ele><time>2026-04-15T09:02:11.075Z</time></trkpt><trkpt lat="51.427485" lon="-0.0925017"><ele>58.0</ele><time>2026-04-15T09:02:12.075Z</time></trkpt><trkpt lat="51.4275183" lon="-0.09266"><ele>58.0</ele><time>2026-04-15T09:02:13.076Z</time></trkpt><trkpt lat="51.4275517" lon="-0.0928333"><ele>58.2</ele><time>2026-04-15T09:02:14.172Z</time></trkpt><trkpt lat="51.42758" lon="-0.0929967"><ele>58.4</ele><time>2026-04-15T09:02:15.075Z</time></trkpt><trkpt lat="51.4276083" lon="-0.0931483"><ele>58.60000000000001</ele><time>2026-04-15T09:02:16.076Z</time></trkpt><trkpt lat="51.427635" lon="-0.0932883"><ele>58.800000000000004</ele><time>2026-04-15T09:02:17.077Z</time></trkpt><trkpt lat="51.4276617" lon="-0.0934083"><ele>59.0</ele><time>2026-04-15T09:02:18.079Z</time></trkpt><trkpt lat="51.427705" lon="-0.093565"><ele>59.6</ele><time>2026-04-15T09:02:20.076Z</time></trkpt><trkpt lat="51.4277917" lon="-0.0936083"><ele>60.2</ele><time>2026-04-15T09:02:22.076Z</time></trkpt><trkpt lat="51.4278633" lon="-0.0935917"><ele>60.800000000000004</ele><time>2026-04-15T09:02:23.077Z</time></trkpt><trkpt lat="51.4279817" lon="-0.0935883"><ele>61.400000000000006</ele><time>2026-04-15T09:02:25.078Z</time></trkpt><trkpt lat="51.4280883" lon="-0.093605"><ele>62.0</ele><time>2026-04-15T09:02:27.075Z</time></trkpt><trkpt lat="51.42816" lon="-0.0936217"><ele>60.8</ele><time>2026-04-15T09:02:29.075Z</time></trkpt><trkpt lat="51.4282583" lon="-0.0936617"><ele>59.6</ele><time>2026-04-15T09:02:33.075Z</time></trkpt><trkpt lat="51.4283583" lon="-0.0936783"><ele>58.39999999999999</ele><time>2026-04-15T09:02:35.076Z</time></trkpt><trkpt lat="51.428455" lon="-0.0936633"><ele>57.199999999999996</ele><time>2026-04-15T09:02:37.075Z</time></trkpt><trkpt lat="51.428555" lon="-0.0936667"><ele>56.0</ele><time>2026-04-15T09:02:39.075Z</time></trkpt><trkpt lat="51.428665" lon="-0.093695"><ele>56.00000000000001</ele><time>2026-04-15T09:02:41.076Z</time></trkpt><trkpt lat="51.42873" lon="-0.0937133"><ele>56.0</ele><time>2026-04-15T09:02:42.076Z</time></trkpt><trkpt lat="51.428805" lon="-0.093735"><ele>56.0</ele><time>2026-04-15T09:02:43.076Z</time></trkpt><trkpt lat="51.4288817" lon="-0.0937567"><ele>56.0</ele><time>2026-04-15T09:02:44.076Z</time></trkpt><trkpt lat="51.428955" lon="-0.0937817"><ele>56.00000000000001</ele><time>2026-04-15T09:02:45.075Z</time></trkpt><trkpt lat="51.42903" lon="-0.0938017"><ele>56.0</ele><time>2026-04-15T09:02:46.077Z</time></trkpt><trkpt lat="51.42911" lon="-0.0938183"><ele>55.50000000000001</ele><time>2026-04-15T09:02:47.075Z</time></trkpt><trkpt lat="51.42919" lon="-0.0938367"><ele>55.0</ele><time>2026-04-15T09:02:48.075Z</time></trkpt><trkpt lat="51.429275" lon="-0.0938517"><ele>54.5</ele><time>2026-04-15T09:02:49.075Z</time></trkpt><trkpt lat="51.429355" lon="-0.0938683"><ele>54.0</ele><time>2026-04-15T09:02:50.075Z</time></trkpt><trkpt lat="51.429425" lon="-0.09389"><ele>53.50000000000001</ele><time>2026-04-15T09:02:51.075Z</time></trkpt><trkpt lat="51.4294933" lon="-0.0939083"><ele>53.0</ele><time>2026-04-15T09:02:52.076Z</time></trkpt><trkpt lat="51.42956" lon="-0.0939267"><ele>52.50000000000001</ele><time>2026-04-15T09:02:53.077Z</time></trkpt><trkpt lat="51.4296767" lon="-0.0939383"><ele>52.0</ele><time>2026-04-15T09:02:55.075Z</time></trkpt><trkpt lat="51.42975" lon="-0.0939483"><ele>51.5</ele><time>2026-04-15T09:02:57.075Z</time></trkpt><trkpt lat="51.4298183" lon="-0.09395"><ele>51.0</ele><time>2026-04-15T09:03:00.077Z</time></trkpt><trkpt lat="51.429905" lon="-0.0939467"><ele>50.50000000000001</ele><time>2026-04-15T09:03:03.074Z</time></trkpt><trkpt lat="51.4299467" lon="-0.0938483"><ele>50.0</ele><time>2026-04-15T09:03:05.077Z</time></trkpt><trkpt lat="51.429955" lon="-0.0936733"><ele>50.00000000000001</ele><time>2026-04-15T09:03:07.078Z</time></trkpt><trkpt lat="51.4299617" lon="-0.09353"><ele>50.0</ele><time>2026-04-15T09:03:09.077Z</time></trkpt><trkpt lat="51.4300133" lon="-0.0934567"><ele>50.0</ele><time>2026-04-15T09:03:11.081Z</time></trkpt><trkpt lat="51.4301083" lon="-0.093485"><ele>50.0</ele><time>2026-04-15T09:03:13.08Z</time></trkpt><trkpt lat="51.4302067" lon="-0.0935183"><ele>50.00000000000001</ele><time>2026-04-15T09:03:15.076Z</time></trkpt><trkpt lat="51.4302967" lon="-0.0935383"><ele>50.0</ele><time>2026-04-15T09:03:17.077Z</time></trkpt><trkpt lat="51.43037" lon="-0.09355"><ele>50.0</ele><time>2026-04-15T09:03:19.076Z</time></trkpt><trkpt lat="51.4304883" lon="-0.093595"><ele>50.0</ele><time>2026-04-15T09:03:21.076Z</time></trkpt><trkpt lat="51.43057" lon="-0.09363"><ele>50.0</ele><time>2026-04-15T09:03:22.076Z</time></trkpt><trkpt lat="51.4306583" lon="-0.0936617"><ele>50.0</ele><time>2026-04-15T09:03:23.076Z</time></trkpt><trkpt lat="51.4307617" lon="-0.093685"><ele>50.0</ele><time>2026-04-15T09:03:24.076Z</time></trkpt><trkpt lat="51.4308733" lon="-0.0936967"><ele>50.0</ele><time>2026-04-15T09:03:25.076Z</time></trkpt><trkpt lat="51.4309833" lon="-0.0937"><ele>50.0</ele><time>2026-04-15T09:03:26.076Z</time></trkpt><trkpt lat="51.4311017" lon="-0.0937133"><ele>50.0</ele><time>2026-04-15T09:03:27.076Z</time></trkpt><trkpt lat="51.4312233" lon="-0.09372"><ele>50.0</ele><time>2026-04-15T09:03:28.077Z</time></trkpt><trkpt lat="51.4313517" lon="-0.093715"><ele>49.75</ele><time>2026-04-15T09:03:29.076Z</time></trkpt><trkpt lat="51.43148" lon="-0.0937167"><ele>49.5</ele><time>2026-04-15T09:03:30.077Z</time></trkpt><trkpt lat="51.4316083" lon="-0.0937183"><ele>49.25</ele><time>2026-04-15T09:03:31.076Z</time></trkpt><trkpt lat="51.4317317" lon="-0.0937233"><ele>49.0</ele><time>2026-04-15T09:03:32.076Z</time></trkpt><trkpt lat="51.4318533" lon="-0.093725"><ele>49.0</ele><time>2026-04-15T09:03:33.076Z</time></trkpt><trkpt lat="51.4319717" lon="-0.09373"><ele>49.0</ele><time>2026-04-15T09:03:34.075Z</time></trkpt><trkpt lat="51.432085" lon="-0.0937367"><ele>49.0</ele><time>2026-04-15T09:03:35.078Z</time></trkpt><trkpt lat="51.432195" lon="-0.0937433"><ele>49.0</ele><time>2026-04-15T09:03:36.075Z</time></trkpt><trkpt lat="51.432295" lon="-0.0937517"><ele>49.0</ele><time>2026-04-15T09:03:37.075Z</time></trkpt><trkpt lat="51.4323883" lon="-0.0937583"><ele>48.49999999999999</ele><time>2026-04-15T09:03:38.076Z</time></trkpt><trkpt lat="51.43247" lon="-0.0937617"><ele>48.0</ele><time>2026-04-15T09:03:39.074Z</time></trkpt><trkpt lat="51.4325367" lon="-0.0937617"><ele>47.5</ele><time>2026-04-15T09:03:40.075Z</time></trkpt><trkpt lat="51.4326133" lon="-0.0937383"><ele>47.0</ele><time>2026-04-15T09:03:42.077Z</time></trkpt><trkpt lat="51.43265" lon="-0.093645"><ele>46.5</ele><time>2026-04-15T09:03:44.076Z</time></trkpt><trkpt lat="51.4326517" lon="-0.0934267"><ele>46.0</ele><time>2026-04-15T09:03:46.076Z</time></trkpt><trkpt lat="51.4326433" lon="-0.0932817"><ele>46.16666666666667</ele><time>2026-04-15T09:03:47.076Z</time></trkpt><trkpt lat="51.4326383" lon="-0.0931417"><ele>46.333333333333336</ele><time>2026-04-15T09:03:48.075Z</time></trkpt><trkpt lat="51.4326283" lon="-0.0929967"><ele>46.5</ele><time>2026-04-15T09:03:49.076Z</time></trkpt><trkpt lat="51.4326167" lon="-0.0928533"><ele>46.666666666666664</ele><time>2026-04-15T09:03:50.076Z</time></trkpt><trkpt lat="51.4326117" lon="-0.0927133"><ele>46.83333333333333</ele><time>2026-04-15T09:03:51.076Z</time></trkpt><trkpt lat="51.4326067" lon="-0.0925783"><ele>47.0</ele><time>2026-04-15T09:03:52.076Z</time></trkpt><trkpt lat="51.4326067" lon="-0.092465"><ele>46.6</ele><time>2026-04-15T09:03:53.076Z</time></trkpt><trkpt lat="51.4326517" lon="-0.09229"><ele>46.2</ele><time>2026-04-15T09:03:55.077Z</time></trkpt><trkpt lat="51.4327167" lon="-0.092275"><ele>45.8</ele><time>2026-04-15T09:03:56.075Z</time></trkpt><trkpt lat="51.432795" lon="-0.0922933"><ele>45.4</ele><time>2026-04-15T09:03:57.076Z</time></trkpt><trkpt lat="51.4328917" lon="-0.0923233"><ele>45.0</ele><time>2026-04-15T09:03:58.075Z</time></trkpt><trkpt lat="51.4330067" lon="-0.0924117"><ele>44.5</ele><time>2026-04-15T09:03:59.077Z</time></trkpt><trkpt lat="51.43315" lon="-0.0925417"><ele>44.0</ele><time>2026-04-15T09:04:00.077Z</time></trkpt><trkpt lat="51.4332683" lon="-0.09261"><ele>43.5</ele><time>2026-04-15T09:04:01.076Z</time></trkpt><trkpt lat="51.433385" lon="-0.09267"><ele>43.0</ele><time>2026-04-15T09:04:02.078Z</time></trkpt><trkpt lat="51.433505" lon="-0.0927317"><ele>43.0</ele><time>2026-04-15T09:04:03.075Z</time></trkpt><trkpt lat="51.4336283" lon="-0.0927883"><ele>43.0</ele><time>2026-04-15T09:04:04.075Z</time></trkpt><trkpt lat="51.4337517" lon="-0.0928467"><ele>43.0</ele><time>2026-04-15T09:04:05.075Z</time></trkpt><trkpt lat="51.4338733" lon="-0.0929067"><ele>43.0</ele><time>2026-04-15T09:04:06.076Z</time></trkpt><trkpt lat="51.4339917" lon="-0.0929667"><ele>42.75</ele><time>2026-04-15T09:04:07.076Z</time></trkpt><trkpt lat="51.4341117" lon="-0.0930283"><ele>42.5</ele><time>2026-04-15T09:04:08.075Z</time></trkpt><trkpt lat="51.4342383" lon="-0.0930867"><ele>42.25</ele><time>2026-04-15T09:04:09.076Z</time></trkpt><trkpt lat="51.4343683" lon="-0.09315"><ele>42.0</ele><time>2026-04-15T09:04:10.076Z</time></trkpt><trkpt lat="51.4344983" lon="-0.0932167"><ele>42.25</ele><time>2026-04-15T09:04:11.077Z</time></trkpt><trkpt lat="51.4346333" lon="-0.09328"><ele>42.5</ele><time>2026-04-15T09:04:12.076Z</time></trkpt><trkpt lat="51.434765" lon="-0.0933383"><ele>42.75</ele><time>2026-04-15T09:04:13.076Z</time></trkpt><trkpt lat="51.4348933" lon="-0.09339"><ele>43.0</ele><time>2026-04-15T09:04:14.076Z</time></trkpt><trkpt lat="51.435015" lon="-0.0934433"><ele>43.0</ele><time>2026-04-15T09:04:15.075Z</time></trkpt><trkpt lat="51.4351283" lon="-0.0934983"><ele>43.0</ele><time>2026-04-15T09:04:16.076Z</time></trkpt><trkpt lat="51.4352367" lon="-0.0935533"><ele>43.0</ele><time>2026-04-15T09:04:17.075Z</time></trkpt><trkpt lat="51.4353367" lon="-0.093605"><ele>43.0</ele><time>2026-04-15T09:04:18.076Z</time></trkpt><trkpt lat="51.4354233" lon="-0.09366"><ele>43.0</ele><time>2026-04-15T09:04:19.075Z</time></trkpt><trkpt lat="51.435495" lon="-0.0937067"><ele>42.599999999999994</ele><time>2026-04-15T09:04:20.076Z</time></trkpt><trkpt lat="51.4355917" lon="-0.0937533"><ele>42.199999999999996</ele><time>2026-04-15T09:04:22.075Z</time></trkpt><trkpt lat="51.4356583" lon="-0.0937733"><ele>41.8</ele><time>2026-04-15T09:04:24.075Z</time></trkpt><trkpt lat="51.4357317" lon="-0.0937117"><ele>41.4</ele><time>2026-04-15T09:04:26.076Z</time></trkpt><trkpt lat="51.4357917" lon="-0.0935383"><ele>41.0</ele><time>2026-04-15T09:04:28.076Z</time></trkpt><trkpt lat="51.4358183" lon="-0.093425"><ele>41.0</ele><time>2026-04-15T09:04:29.079Z</time></trkpt><trkpt lat="51.4358417" lon="-0.0932933"><ele>41.0</ele><time>2026-04-15T09:04:30.076Z</time></trkpt><trkpt lat="51.4358467" lon="-0.09313"><ele>41.0</ele><time>2026-04-15T09:04:31.076Z</time></trkpt><trkpt lat="51.4358483" lon="-0.092965"><ele>41.0</ele><time>2026-04-15T09:04:32.075Z</time></trkpt><trkpt lat="51.435855" lon="-0.0928133"><ele>41.0</ele><time>2026-04-15T09:04:33.075Z</time></trkpt><trkpt lat="51.4358667" lon="-0.0926717"><ele>41.0</ele><time>2026-04-15T09:04:34.075Z</time></trkpt><trkpt lat="51.4358733" lon="-0.09252"><ele>41.0</ele><time>2026-04-15T09:04:35.076Z</time></trkpt><trkpt lat="51.4358817" lon="-0.0923583"><ele>41.0</ele><time>2026-04-15T09:04:36.075Z</time></trkpt><trkpt lat="51.4358917" lon="-0.0922"><ele>41.0</ele><time>2026-04-15T09:04:37.076Z</time></trkpt><trkpt lat="51.4359017" lon="-0.09205"><ele>41.0</ele><time>2026-04-15T09:04:38.075Z</time></trkpt><trkpt lat="51.4359067" lon="-0.0919067"><ele>41.0</ele><time>2026-04-15T09:04:39.075Z</time></trkpt><trkpt lat="51.4359117" lon="-0.0917767"><ele>41.0</ele><time>2026-04-15T09:04:40.075Z</time></trkpt><trkpt lat="51.4359083" lon="-0.09165"><ele>41.0</ele><time>2026-04-15T09:04:41.076Z</time></trkpt><trkpt lat="51.43591" lon="-0.09153"><ele>41.0</ele><time>2026-04-15T09:04:42.076Z</time></trkpt><trkpt lat="51.4359267" lon="-0.0913467"><ele>41.0</ele><time>2026-04-15T09:04:44.075Z</time></trkpt><trkpt lat="51.435945" lon="-0.091185"><ele>41.0</ele><time>2026-04-15T09:04:46.076Z</time></trkpt><trkpt lat="51.4359633" lon="-0.0910667"><ele>41.0</ele><time>2026-04-15T09:04:48.077Z</time></trkpt><trkpt lat="51.4359917" lon="-0.0909483"><ele>41.0</ele><time>2026-04-15T09:04:50.075Z</time></trkpt><trkpt lat="51.4360283" lon="-0.0908567"><ele>41.0</ele><time>2026-04-15T09:04:52.075Z</time></trkpt><trkpt lat="51.4360683" lon="-0.090745"><ele>41.0</ele><time>2026-04-15T09:04:55.077Z</time></trkpt><trkpt lat="51.436125" lon="-0.0906583"><ele>41.0</ele><time>2026-04-15T09:05:25.076Z</time></trkpt><trkpt lat="51.436225" lon="-0.0906333"><ele>41.0</ele><time>2026-04-15T09:05:27.075Z</time></trkpt><trkpt lat="51.43629" lon="-0.0906383"><ele>41.0</ele><time>2026-04-15T09:05:28.075Z</time></trkpt><trkpt lat="51.4363683" lon="-0.0906517"><ele>41.0</ele><time>2026-04-15T09:05:29.075Z</time></trkpt><trkpt lat="51.4364583" lon="-0.0906633"><ele>41.0</ele><time>2026-04-15T09:05:30.077Z</time></trkpt><trkpt lat="51.4365483" lon="-0.09069"><ele>41.0</ele><time>2026-04-15T09:05:31.08Z</time></trkpt><trkpt lat="51.4366367" lon="-0.0907217"><ele>41.0</ele><time>2026-04-15T09:05:32.078Z</time></trkpt><trkpt lat="51.4367267" lon="-0.0907617"><ele>41.0</ele><time>2026-04-15T09:05:33.079Z</time></trkpt><trkpt lat="51.4368183" lon="-0.090795"><ele>41.0</ele><time>2026-04-15T09:05:34.075Z</time></trkpt><trkpt lat="51.4369117" lon="-0.0908283"><ele>41.0</ele><time>2026-04-15T09:05:35.082Z</time></trkpt><trkpt lat="51.4370067" lon="-0.0908567"><ele>41.0</ele><time>2026-04-15T09:05:36.078Z</time></trkpt><trkpt lat="51.4371" lon="-0.0908883"><ele>41.0</ele><time>2026-04-15T09:05:37.078Z</time></trkpt><trkpt lat="51.4371933" lon="-0.0909283"><ele>40.8</ele><time>2026-04-15T09:05:38.08Z</time></trkpt><trkpt lat="51.437295" lon="-0.0909717"><ele>40.599999999999994</ele><time>2026-04-15T09:05:39.08Z</time></trkpt><trkpt lat="51.437405" lon="-0.09101"><ele>40.4</ele><time>2026-04-15T09:05:40.079Z</time></trkpt><trkpt lat="51.4375133" lon="-0.0910517"><ele>40.2</ele><time>2026-04-15T09:05:41.077Z</time></trkpt><trkpt lat="51.43762" lon="-0.0910933"><ele>40.0</ele><time>2026-04-15T09:05:42.077Z</time></trkpt><trkpt lat="51.437725" lon="-0.0911417"><ele>40.0</ele><time>2026-04-15T09:05:43.077Z</time></trkpt><trkpt lat="51.4378217" lon="-0.0912017"><ele>40.0</ele><time>2026-04-15T09:05:44.077Z</time></trkpt><trkpt lat="51.43791" lon="-0.0912567"><ele>40.0</ele><time>2026-04-15T09:05:45.076Z</time></trkpt><trkpt lat="51.4380017" lon="-0.091315"><ele>40.0</ele><time>2026-04-15T09:05:46.075Z</time></trkpt><trkpt lat="51.4380933" lon="-0.0913817"><ele>40.0</ele><time>2026-04-15T09:05:47.077Z</time></trkpt><trkpt lat="51.4381867" lon="-0.0914533"><ele>39.4</ele><time>2026-04-15T09:05:48.094Z</time></trkpt><trkpt lat="51.4382833" lon="-0.0915233"><ele>38.8</ele><time>2026-04-15T09:05:49.076Z</time></trkpt><trkpt lat="51.438375" lon="-0.0915867"><ele>38.2</ele><time>2026-04-15T09:05:50.075Z</time></trkpt><trkpt lat="51.4384683" lon="-0.0916583"><ele>37.6</ele><time>2026-04-15T09:05:51.076Z</time></trkpt><trkpt lat="51.438555" lon="-0.0917317"><ele>37.0</ele><time>2026-04-15T09:05:52.076Z</time></trkpt><trkpt lat="51.43865" lon="-0.0918017"><ele>37.0</ele><time>2026-04-15T09:05:53.077Z</time></trkpt><trkpt lat="51.4387433" lon="-0.0918833"><ele>37.0</ele><time>2026-04-15T09:05:54.075Z</time></trkpt><trkpt lat="51.4388367" lon="-0.0919517"><ele>37.0</ele><time>2026-04-15T09:05:55.075Z</time></trkpt><trkpt lat="51.4389283" lon="-0.092015"><ele>37.0</ele><time>2026-04-15T09:05:56.08Z</time></trkpt><trkpt lat="51.439025" lon="-0.092065"><ele>37.0</ele><time>2026-04-15T09:05:57.079Z</time></trkpt><trkpt lat="51.4391233" lon="-0.0921083"><ele>37.0</ele><time>2026-04-15T09:05:58.079Z</time></trkpt><trkpt lat="51.43922" lon="-0.0921467"><ele>37.0</ele><time>2026-04-15T09:05:59.078Z</time></trkpt><trkpt lat="51.439315" lon="-0.0921783"><ele>37.0</ele><time>2026-04-15T09:06:00.079Z</time></trkpt><trkpt lat="51.4394" lon="-0.0922017"><ele>37.0</ele><time>2026-04-15T09:06:01.078Z</time></trkpt><trkpt lat="51.4394767" lon="-0.09223"><ele>37.0</ele><time>2026-04-15T09:06:02.077Z</time></trkpt><trkpt lat="51.4395467" lon="-0.092255"><ele>37.0</ele><time>2026-04-15T09:06:03.075Z</time></trkpt><trkpt lat="51.439615" lon="-0.0922783"><ele>36.714285714285715</ele><time>2026-04-15T09:06:04.076Z</time></trkpt><trkpt lat="51.439685" lon="-0.0923017"><ele>36.42857142857143</ele><time>2026-04-15T09:06:05.076Z</time></trkpt><trkpt lat="51.439755" lon="-0.0923267"><ele>36.14285714285714</ele><time>2026-04-15T09:06:06.075Z</time></trkpt><trkpt lat="51.4398267" lon="-0.0923517"><ele>35.85714285714286</ele><time>2026-04-15T09:06:07.076Z</time></trkpt><trkpt lat="51.4399017" lon="-0.0923783"><ele>35.57142857142857</ele><time>2026-04-15T09:06:08.076Z</time></trkpt><trkpt lat="51.439975" lon="-0.0924067"><ele>35.285714285714285</ele><time>2026-04-15T09:06:09.076Z</time></trkpt><trkpt lat="51.4400467" lon="-0.092435"><ele>35.0</ele><time>2026-04-15T09:06:10.076Z</time></trkpt><trkpt lat="51.4401283" lon="-0.09246"><ele>35.0</ele><time>2026-04-15T09:06:11.082Z</time></trkpt><trkpt lat="51.440215" lon="-0.0924817"><ele>35.0</ele><time>2026-04-15T09:06:12.077Z</time></trkpt><trkpt lat="51.4403" lon="-0.0925067"><ele>35.0</ele><time>2026-04-15T09:06:13.077Z</time></trkpt><trkpt lat="51.4403833" lon="-0.0925367"><ele>35.0</ele><time>2026-04-15T09:06:14.078Z</time></trkpt><trkpt lat="51.4404633" lon="-0.092565"><ele>35.0</ele><time>2026-04-15T09:06:15.078Z</time></trkpt><trkpt lat="51.4405383" lon="-0.09261"><ele>35.0</ele><time>2026-04-15T09:06:16.08Z</time></trkpt><trkpt lat="51.4406133" lon="-0.0926567"><ele>34.83333333333333</ele><time>2026-04-15T09:06:17.078Z</time></trkpt><trkpt lat="51.440685" lon="-0.0926983"><ele>34.666666666666664</ele><time>2026-04-15T09:06:18.078Z</time></trkpt><trkpt lat="51.4407467" lon="-0.09273"><ele>34.5</ele><time>2026-04-15T09:06:19.078Z</time></trkpt><trkpt lat="51.4408233" lon="-0.09276"><ele>34.333333333333336</ele><time>2026-04-15T09:06:21.08Z</time></trkpt><trkpt lat="51.44089" lon="-0.0928333"><ele>34.16666666666667</ele><time>2026-04-15T09:06:30.075Z</time></trkpt><trkpt lat="51.4409617" lon="-0.092855"><ele>34.0</ele><time>2026-04-15T09:06:31.079Z</time></trkpt><trkpt lat="51.4410733" lon="-0.092915"><ele>34.0</ele><time>2026-04-15T09:06:32.075Z</time></trkpt><trkpt lat="51.4411967" lon="-0.0929783"><ele>34.0</ele><time>2026-04-15T09:06:33.075Z</time></trkpt><trkpt lat="51.4413067" lon="-0.0930367"><ele>34.0</ele><time>2026-04-15T09:06:34.076Z</time></trkpt><trkpt lat="51.4414133" lon="-0.0930933"><ele>34.0</ele><time>2026-04-15T09:06:35.076Z</time></trkpt><trkpt lat="51.4415167" lon="-0.0931517"><ele>34.0</ele><time>2026-04-15T09:06:36.08Z</time></trkpt><trkpt lat="51.4416167" lon="-0.0932083"><ele>34.0</ele><time>2026-04-15T09:06:37.077Z</time></trkpt><trkpt lat="51.4417183" lon="-0.0932633"><ele>34.0</ele><time>2026-04-15T09:06:38.076Z</time></trkpt><trkpt lat="51.44182" lon="-0.0933317"><ele>34.0</ele><time>2026-04-15T09:06:39.075Z</time></trkpt><trkpt lat="51.4419233" lon="-0.0934217"><ele>34.0</ele><time>2026-04-15T09:06:40.076Z</time></trkpt><trkpt lat="51.44202" lon="-0.09351"><ele>34.0</ele><time>2026-04-15T09:06:41.077Z</time></trkpt><trkpt lat="51.4421133" lon="-0.0936"><ele>34.0</ele><time>2026-04-15T09:06:42.076Z</time></trkpt><trkpt lat="51.4422083" lon="-0.093685"><ele>34.0</ele><time>2026-04-15T09:06:43.077Z</time></trkpt><trkpt lat="51.4423033" lon="-0.0937683"><ele>34.0</ele><time>2026-04-15T09:06:44.076Z</time></trkpt><trkpt lat="51.4423983" lon="-0.09385"><ele>34.0</ele><time>2026-04-15T09:06:45.076Z</time></trkpt><trkpt lat="51.4424967" lon="-0.0939283"><ele>34.0</ele><time>2026-04-15T09:06:46.075Z</time></trkpt><trkpt lat="51.442595" lon="-0.094005"><ele>34.0</ele><time>2026-04-15T09:06:47.076Z</time></trkpt><trkpt lat="51.4426933" lon="-0.09408"><ele>34.0</ele><time>2026-04-15T09:06:48.076Z</time></trkpt><trkpt lat="51.4427933" lon="-0.0941533"><ele>34.0</ele><time>2026-04-15T09:06:49.077Z</time></trkpt><trkpt lat="51.4428933" lon="-0.0942283"><ele>34.0</ele><time>2026-04-15T09:06:50.075Z</time></trkpt><trkpt lat="51.442995" lon="-0.0943033"><ele>33.75</ele><time>2026-04-15T09:06:51.075Z</time></trkpt><trkpt lat="51.4430967" lon="-0.0943733"><ele>33.5</ele><time>2026-04-15T09:06:52.076Z</time></trkpt><trkpt lat="51.443205" lon="-0.0944417"><ele>33.25</ele><time>2026-04-15T09:06:53.075Z</time></trkpt><trkpt lat="51.4433183" lon="-0.0945033"><ele>33.0</ele><time>2026-04-15T09:06:54.075Z</time></trkpt><trkpt lat="51.443435" lon="-0.09456"><ele>33.0</ele><time>2026-04-15T09:06:55.076Z</time></trkpt><trkpt lat="51.4435467" lon="-0.09462"><ele>33.0</ele><time>2026-04-15T09:06:56.076Z</time></trkpt><trkpt lat="51.4436583" lon="-0.094675"><ele>33.0</ele><time>2026-04-15T09:06:57.075Z</time></trkpt><trkpt lat="51.4437733" lon="-0.0947317"><ele>33.0</ele><time>2026-04-15T09:06:58.075Z</time></trkpt><trkpt lat="51.44389" lon="-0.0947867"><ele>33.0</ele><time>2026-04-15T09:06:59.076Z</time></trkpt><trkpt lat="51.4440067" lon="-0.0948367"><ele>33.0</ele><time>2026-04-15T09:07:00.077Z</time></trkpt><trkpt lat="51.4441233" lon="-0.0948833"><ele>33.0</ele><time>2026-04-15T09:07:01.076Z</time></trkpt><trkpt lat="51.444245" lon="-0.094925"><ele>33.0</ele><time>2026-04-15T09:07:02.076Z</time></trkpt><trkpt lat="51.4443617" lon="-0.0949633"><ele>33.0</ele><time>2026-04-15T09:07:03.077Z</time></trkpt><trkpt lat="51.44448" lon="-0.0949967"><ele>33.0</ele><time>2026-04-15T09:07:04.075Z</time></trkpt><trkpt lat="51.4445933" lon="-0.0950283"><ele>33.0</ele><time>2026-04-15T09:07:05.077Z</time></trkpt><trkpt lat="51.4447017" lon="-0.095055"><ele>33.0</ele><time>2026-04-15T09:07:06.076Z</time></trkpt><trkpt lat="51.4448083" lon="-0.095075"><ele>33.0</ele><time>2026-04-15T09:07:07.077Z</time></trkpt><trkpt lat="51.4449217" lon="-0.09508"><ele>33.0</ele><time>2026-04-15T09:07:08.08Z</time></trkpt><trkpt lat="51.44504" lon="-0.095065"><ele>33.0</ele><time>2026-04-15T09:07:09.075Z</time></trkpt><trkpt lat="51.445165" lon="-0.0950567"><ele>33.0</ele><time>2026-04-15T09:07:10.077Z</time></trkpt><trkpt lat="51.4452917" lon="-0.09506"><ele>33.0</ele><time>2026-04-15T09:07:11.078Z</time></trkpt><trkpt lat="51.4454117" lon="-0.09509"><ele>33.0</ele><time>2026-04-15T09:07:12.075Z</time></trkpt><trkpt lat="51.445525" lon="-0.0951367"><ele>33.0</ele><time>2026-04-15T09:07:13.076Z</time></trkpt><trkpt lat="51.4456317" lon="-0.0951917"><ele>33.0</ele><time>2026-04-15T09:07:14.076Z</time></trkpt><trkpt lat="51.445735" lon="-0.0952567"><ele>32.6</ele><time>2026-04-15T09:07:15.076Z</time></trkpt><trkpt lat="51.4458367" lon="-0.095325"><ele>32.199999999999996</ele><time>2026-04-15T09:07:16.075Z</time></trkpt><trkpt lat="51.4459367" lon="-0.0953983"><ele>31.8</ele><time>2026-04-15T09:07:17.076Z</time></trkpt><trkpt lat="51.4460367" lon="-0.0954733"><ele>31.4</ele><time>2026-04-15T09:07:18.075Z</time></trkpt><trkpt lat="51.4461367" lon="-0.0955517"><ele>31.0</ele><time>2026-04-15T09:07:19.077Z</time></trkpt><trkpt lat="51.446235" lon="-0.095625"><ele>31.166666666666668</ele><time>2026-04-15T09:07:20.076Z</time></trkpt><trkpt lat="51.4463267" lon="-0.0956983"><ele>31.333333333333336</ele><time>2026-04-15T09:07:21.075Z</time></trkpt><trkpt lat="51.4464067" lon="-0.0957667"><ele>31.5</ele><time>2026-04-15T09:07:22.076Z</time></trkpt><trkpt lat="51.4464767" lon="-0.0958383"><ele>31.666666666666664</ele><time>2026-04-15T09:07:23.077Z</time></trkpt><trkpt lat="51.4465383" lon="-0.0959017"><ele>31.833333333333332</ele><time>2026-04-15T09:07:24.077Z</time></trkpt><trkpt lat="51.4465967" lon="-0.095965"><ele>32.0</ele><time>2026-04-15T09:07:25.076Z</time></trkpt><trkpt lat="51.4466517" lon="-0.096025"><ele>31.999999999999996</ele><time>2026-04-15T09:07:26.077Z</time></trkpt><trkpt lat="51.44671" lon="-0.0960817"><ele>32.0</ele><time>2026-04-15T09:07:27.077Z</time></trkpt><trkpt lat="51.4467717" lon="-0.0961467"><ele>32.0</ele><time>2026-04-15T09:07:28.075Z</time></trkpt><trkpt lat="51.4468367" lon="-0.096215"><ele>32.0</ele><time>2026-04-15T09:07:29.076Z</time></trkpt><trkpt lat="51.4469017" lon="-0.0962883"><ele>31.999999999999996</ele><time>2026-04-15T09:07:30.076Z</time></trkpt><trkpt lat="51.4469667" lon="-0.09637"><ele>32.0</ele><time>2026-04-15T09:07:31.076Z</time></trkpt><trkpt lat="51.4470333" lon="-0.096455"><ele>31.999999999999996</ele><time>2026-04-15T09:07:32.077Z</time></trkpt><trkpt lat="51.4470967" lon="-0.096545"><ele>32.0</ele><time>2026-04-15T09:07:33.075Z</time></trkpt><trkpt lat="51.4471633" lon="-0.0966283"><ele>32.0</ele><time>2026-04-15T09:07:34.076Z</time></trkpt><trkpt lat="51.44723" lon="-0.0967167"><ele>32.0</ele><time>2026-04-15T09:07:35.076Z</time></trkpt><trkpt lat="51.4472967" lon="-0.0968083"><ele>31.999999999999996</ele><time>2026-04-15T09:07:36.076Z</time></trkpt><trkpt lat="51.447365" lon="-0.0969033"><ele>32.0</ele><time>2026-04-15T09:07:37.077Z</time></trkpt><trkpt lat="51.4474383" lon="-0.09699"><ele>32.0</ele><time>2026-04-15T09:07:38.077Z</time></trkpt><trkpt lat="51.447515" lon="-0.0970867"><ele>32.0</ele><time>2026-04-15T09:07:39.079Z</time></trkpt><trkpt lat="51.4475867" lon="-0.0971933"><ele>32.0</ele><time>2026-04-15T09:07:40.076Z</time></trkpt><trkpt lat="51.4476667" lon="-0.0972917"><ele>32.0</ele><time>2026-04-15T09:07:41.077Z</time></trkpt><trkpt lat="51.4477467" lon="-0.0973883"><ele>32.0</ele><time>2026-04-15T09:07:42.077Z</time></trkpt><trkpt lat="51.4478217" lon="-0.097485"><ele>31.999999999999996</ele><time>2026-04-15T09:07:43.077Z</time></trkpt><trkpt lat="51.44789" lon="-0.0975783"><ele>32.0</ele><time>2026-04-15T09:07:44.077Z</time></trkpt><trkpt lat="51.4479583" lon="-0.0976633"><ele>32.0</ele><time>2026-04-15T09:07:45.077Z</time></trkpt><trkpt lat="51.4480233" lon="-0.0977517"><ele>32.0</ele><time>2026-04-15T09:07:46.076Z</time></trkpt><trkpt lat="51.4480867" lon="-0.097845"><ele>31.999999999999996</ele><time>2026-04-15T09:07:47.076Z</time></trkpt><trkpt lat="51.4481517" lon="-0.0979417"><ele>32.0</ele><time>2026-04-15T09:07:48.08Z</time></trkpt><trkpt lat="51.4482217" lon="-0.09803"><ele>32.0</ele><time>2026-04-15T09:07:49.076Z</time></trkpt><trkpt lat="51.44829" lon="-0.0981183"><ele>32.0</ele><time>2026-04-15T09:07:50.075Z</time></trkpt><trkpt lat="51.4483617" lon="-0.09822"><ele>32.0</ele><time>2026-04-15T09:07:51.077Z</time></trkpt><trkpt lat="51.4484333" lon="-0.0983317"><ele>32.0</ele><time>2026-04-15T09:07:52.077Z</time></trkpt><trkpt lat="51.4485033" lon="-0.098455"><ele>32.0</ele><time>2026-04-15T09:07:53.079Z</time></trkpt><trkpt lat="51.448575" lon="-0.0985667"><ele>32.2</ele><time>2026-04-15T09:07:54.076Z</time></trkpt><trkpt lat="51.4486483" lon="-0.098675"><ele>32.400000000000006</ele><time>2026-04-15T09:07:55.077Z</time></trkpt><trkpt lat="51.4487183" lon="-0.0987733"><ele>32.599999999999994</ele><time>2026-04-15T09:07:56.077Z</time></trkpt><trkpt lat="51.44879" lon="-0.09886"><ele>32.8</ele><time>2026-04-15T09:07:57.075Z</time></trkpt><trkpt lat="51.4488583" lon="-0.0989417"><ele>33.0</ele><time>2026-04-15T09:07:58.077Z</time></trkpt><trkpt lat="51.448925" lon="-0.0990183"><ele>32.5</ele><time>2026-04-15T09:07:59.076Z</time></trkpt><trkpt lat="51.44899" lon="-0.0990883"><ele>32.0</ele><time>2026-04-15T09:08:00.076Z</time></trkpt><trkpt lat="51.4490583" lon="-0.09916"><ele>31.5</ele><time>2026-04-15T09:08:01.076Z</time></trkpt><trkpt lat="51.4491333" lon="-0.099225"><ele>31.0</ele><time>2026-04-15T09:08:02.077Z</time></trkpt><trkpt lat="51.4492083" lon="-0.0992767"><ele>30.5</ele><time>2026-04-15T09:08:03.076Z</time></trkpt><trkpt lat="51.4492817" lon="-0.09932"><ele>30.0</ele><time>2026-04-15T09:08:04.075Z</time></trkpt><trkpt lat="51.44935" lon="-0.0993583"><ele>30.0</ele><time>2026-04-15T09:08:05.079Z</time></trkpt><trkpt lat="51.44942" lon="-0.0993867"><ele>30.0</ele><time>2026-04-15T09:08:06.076Z</time></trkpt><trkpt lat="51.449485" lon="-0.0994033"><ele>30.0</ele><time>2026-04-15T09:08:07.075Z</time></trkpt><trkpt lat="51.4495517" lon="-0.09942"><ele>30.0</ele><time>2026-04-15T09:08:08.075Z</time></trkpt><trkpt lat="51.449615" lon="-0.0994367"><ele>30.0</ele><time>2026-04-15T09:08:09.075Z</time></trkpt><trkpt lat="51.44968" lon="-0.0994583"><ele>30.0</ele><time>2026-04-15T09:08:10.077Z</time></trkpt><trkpt lat="51.449745" lon="-0.099485"><ele>30.0</ele><time>2026-04-15T09:08:11.077Z</time></trkpt><trkpt lat="51.4498133" lon="-0.0995217"><ele>29.833333333333332</ele><time>2026-04-15T09:08:12.077Z</time></trkpt><trkpt lat="51.4498833" lon="-0.0995667"><ele>29.666666666666664</ele><time>2026-04-15T09:08:13.076Z</time></trkpt><trkpt lat="51.4499533" lon="-0.099605"><ele>29.5</ele><time>2026-04-15T09:08:14.076Z</time></trkpt><trkpt lat="51.4500183" lon="-0.099645"><ele>29.333333333333332</ele><time>2026-04-15T09:08:15.075Z</time></trkpt><trkpt lat="51.4501183" lon="-0.0997367"><ele>29.166666666666664</ele><time>2026-04-15T09:08:17.077Z</time></trkpt><trkpt lat="51.450205" lon="-0.0998567"><ele>29.0</ele><time>2026-04-15T09:08:19.077Z</time></trkpt><trkpt lat="51.45029" lon="-0.1000017"><ele>28.666666666666664</ele><time>2026-04-15T09:08:21.081Z</time></trkpt><trkpt lat="51.4503317" lon="-0.1001567"><ele>28.333333333333332</ele><time>2026-04-15T09:08:23.077Z</time></trkpt><trkpt lat="51.4503417" lon="-0.100265"><ele>28.0</ele><time>2026-04-15T09:08:25.076Z</time></trkpt><trkpt lat="51.4503467" lon="-0.1003983"><ele>27.666666666666664</ele><time>2026-04-15T09:08:28.08Z</time></trkpt><trkpt lat="51.4503417" lon="-0.10051"><ele>27.333333333333332</ele><time>2026-04-15T09:08:31.076Z</time></trkpt><trkpt lat="51.4503883" lon="-0.100675"><ele>27.0</ele><time>2026-04-15T09:09:00.076Z</time></trkpt><trkpt lat="51.45047" lon="-0.1007817"><ele>26.200000000000003</ele><time>2026-04-15T09:09:02.076Z</time></trkpt><trkpt lat="51.4505467" lon="-0.1007867"><ele>25.400000000000002</ele><time>2026-04-15T09:09:03.075Z</time></trkpt><trkpt lat="51.45065" lon="-0.10077"><ele>24.6</ele><time>2026-04-15T09:09:04.076Z</time></trkpt><trkpt lat="51.4507367" lon="-0.100765"><ele>23.799999999999997</ele><time>2026-04-15T09:09:05.078Z</time></trkpt><trkpt lat="51.4508283" lon="-0.1007633"><ele>23.0</ele><time>2026-04-15T09:09:06.078Z</time></trkpt><trkpt lat="51.45092" lon="-0.1007667"><ele>23.0</ele><time>2026-04-15T09:09:07.076Z</time></trkpt><trkpt lat="51.451015" lon="-0.100775"><ele>23.0</ele><time>2026-04-15T09:09:08.078Z</time></trkpt><trkpt lat="51.4511017" lon="-0.1007917"><ele>23.0</ele><time>2026-04-15T09:09:09.076Z</time></trkpt><trkpt lat="51.4511867" lon="-0.1008233"><ele>23.0</ele><time>2026-04-15T09:09:10.077Z</time></trkpt><trkpt lat="51.45127" lon="-0.1008617"><ele>23.0</ele><time>2026-04-15T09:09:11.078Z</time></trkpt><trkpt lat="51.4513517" lon="-0.1009183"><ele>23.0</ele><time>2026-04-15T09:09:12.077Z</time></trkpt><trkpt lat="51.4514283" lon="-0.1009867"><ele>23.0</ele><time>2026-04-15T09:09:13.076Z</time></trkpt><trkpt lat="51.4515033" lon="-0.101055"><ele>23.0</ele><time>2026-04-15T09:09:14.076Z</time></trkpt><trkpt lat="51.451575" lon="-0.1011167"><ele>23.0</ele><time>2026-04-15T09:09:15.075Z</time></trkpt><trkpt lat="51.4516433" lon="-0.101185"><ele>23.0</ele><time>2026-04-15T09:09:16.076Z</time></trkpt><trkpt lat="51.4517117" lon="-0.1012433"><ele>23.0</ele><time>2026-04-15T09:09:17.078Z</time></trkpt><trkpt lat="51.4517783" lon="-0.1012983"><ele>23.0</ele><time>2026-04-15T09:09:18.075Z</time></trkpt><trkpt lat="51.4518417" lon="-0.1013417"><ele>23.0</ele><time>2026-04-15T09:09:19.076Z</time></trkpt><trkpt lat="51.4519017" lon="-0.101375"><ele>23.0</ele><time>2026-04-15T09:09:20.076Z</time></trkpt><trkpt lat="51.452" lon="-0.1014317"><ele>23.0</ele><time>2026-04-15T09:09:22.076Z</time></trkpt><trkpt lat="51.4520733" lon="-0.10147"><ele>23.0</ele><time>2026-04-15T09:09:25.079Z</time></trkpt><trkpt lat="51.45215" lon="-0.1015133"><ele>23.0</ele><time>2026-04-15T09:09:40.077Z</time></trkpt><trkpt lat="51.4522433" lon="-0.1015517"><ele>23.0</ele><time>2026-04-15T09:09:42.075Z</time></trkpt><trkpt lat="51.4523433" lon="-0.1015517"><ele>23.2</ele><time>2026-04-15T09:09:44.08Z</time></trkpt><trkpt lat="51.4524417" lon="-0.1015183"><ele>23.4</ele><time>2026-04-15T09:09:46.077Z</time></trkpt><trkpt lat="51.4525217" lon="-0.101465"><ele>23.599999999999998</ele><time>2026-04-15T09:09:48.075Z</time></trkpt><trkpt lat="51.452585" lon="-0.1014017"><ele>23.799999999999997</ele><time>2026-04-15T09:09:50.076Z</time></trkpt><trkpt lat="51.4526633" lon="-0.1013317"><ele>24.0</ele><time>2026-04-15T09:09:52.075Z</time></trkpt><trkpt lat="51.4527583" lon="-0.1012717"><ele>24.0</ele><time>2026-04-15T09:09:54.079Z</time></trkpt><trkpt lat="51.452855" lon="-0.101315"><ele>24.0</ele><time>2026-04-15T09:09:56.077Z</time></trkpt><trkpt lat="51.452915" lon="-0.1013817"><ele>24.0</ele><time>2026-04-15T09:09:57.077Z</time></trkpt><trkpt lat="51.452975" lon="-0.1014433"><ele>24.0</ele><time>2026-04-15T09:09:58.076Z</time></trkpt><trkpt lat="51.4530367" lon="-0.1014883"><ele>24.0</ele><time>2026-04-15T09:09:59.077Z</time></trkpt><trkpt lat="51.4531417" lon="-0.1015617"><ele>24.0</ele><time>2026-04-15T09:10:01.076Z</time></trkpt><trkpt lat="51.45322" lon="-0.1016083"><ele>24.166666666666668</ele><time>2026-04-15T09:10:03.076Z</time></trkpt><trkpt lat="51.4533" lon="-0.1016467"><ele>24.333333333333336</ele><time>2026-04-15T09:10:05.078Z</time></trkpt><trkpt lat="51.4533617" lon="-0.1016917"><ele>24.5</ele><time>2026-04-15T09:10:08.076Z</time></trkpt><trkpt lat="51.4534383" lon="-0.1017483"><ele>24.666666666666668</ele><time>2026-04-15T09:10:11.076Z</time></trkpt><trkpt lat="51.453515" lon="-0.1017967"><ele>24.833333333333336</ele><time>2026-04-15T09:10:15.076Z</time></trkpt><trkpt lat="51.4535883" lon="-0.1018483"><ele>25.0</ele><time>2026-04-15T09:10:17.076Z</time></trkpt><trkpt lat="51.4536933" lon="-0.1019383"><ele>25.0</ele><time>2026-04-15T09:10:19.076Z</time></trkpt><trkpt lat="51.4537683" lon="-0.102005"><ele>25.0</ele><time>2026-04-15T09:10:20.08Z</time></trkpt><trkpt lat="51.453865" lon="-0.1020967"><ele>25.0</ele><time>2026-04-15T09:10:21.076Z</time></trkpt><trkpt lat="51.453975" lon="-0.1022333"><ele>25.0</ele><time>2026-04-15T09:10:22.076Z</time></trkpt><trkpt lat="51.45408" lon="-0.1023517"><ele>25.0</ele><time>2026-04-15T09:10:23.079Z</time></trkpt><trkpt lat="51.45418" lon="-0.1024467"><ele>25.0</ele><time>2026-04-15T09:10:24.076Z</time></trkpt><trkpt lat="51.454285" lon="-0.10253"><ele>25.0</ele><time>2026-04-15T09:10:25.076Z</time></trkpt><trkpt lat="51.454385" lon="-0.1026017"><ele>25.0</ele><time>2026-04-15T09:10:26.077Z</time></trkpt><trkpt lat="51.454485" lon="-0.1026683"><ele>25.0</ele><time>2026-04-15T09:10:27.079Z</time></trkpt><trkpt lat="51.4545883" lon="-0.1027433"><ele>25.0</ele><time>2026-04-15T09:10:28.08Z</time></trkpt><trkpt lat="51.454695" lon="-0.1028083"><ele>25.0</ele><time>2026-04-15T09:10:29.081Z</time></trkpt><trkpt lat="51.4547983" lon="-0.1028733"><ele>25.0</ele><time>2026-04-15T09:10:30.076Z</time></trkpt><trkpt lat="51.454895" lon="-0.10293"><ele>25.0</ele><time>2026-04-15T09:10:31.08Z</time></trkpt><trkpt lat="51.4549867" lon="-0.102985"><ele>25.666666666666668</ele><time>2026-04-15T09:10:32.08Z</time></trkpt><trkpt lat="51.455075" lon="-0.1030383"><ele>26.333333333333336</ele><time>2026-04-15T09:10:33.081Z</time></trkpt><trkpt lat="51.4551567" lon="-0.1030833"><ele>27.0</ele><time>2026-04-15T09:10:34.077Z</time></trkpt><trkpt lat="51.4552433" lon="-0.1031217"><ele>27.666666666666664</ele><time>2026-04-15T09:10:35.082Z</time></trkpt><trkpt lat="51.455325" lon="-0.10316"><ele>28.333333333333332</ele><time>2026-04-15T09:10:36.079Z</time></trkpt><trkpt lat="51.455405" lon="-0.1031933"><ele>29.0</ele><time>2026-04-15T09:10:37.081Z</time></trkpt><trkpt lat="51.4554833" lon="-0.1032333"><ele>28.666666666666664</ele><time>2026-04-15T09:10:38.081Z</time></trkpt><trkpt lat="51.45556" lon="-0.1032683"><ele>28.333333333333332</ele><time>2026-04-15T09:10:39.078Z</time></trkpt><trkpt lat="51.4556367" lon="-0.1032933"><ele>28.0</ele><time>2026-04-15T09:10:40.081Z</time></trkpt><trkpt lat="51.4557133" lon="-0.1033233"><ele>27.666666666666664</ele><time>2026-04-15T09:10:41.077Z</time></trkpt><trkpt lat="51.4557933" lon="-0.10335"><ele>27.333333333333332</ele><time>2026-04-15T09:10:42.076Z</time></trkpt><trkpt lat="51.455875" lon="-0.10337"><ele>27.0</ele><time>2026-04-15T09:10:43.078Z</time></trkpt><trkpt lat="51.455955" lon="-0.1034"><ele>27.0</ele><time>2026-04-15T09:10:44.076Z</time></trkpt><trkpt lat="51.4560367" lon="-0.1034283"><ele>27.0</ele><time>2026-04-15T09:10:45.076Z</time></trkpt><trkpt lat="51.456125" lon="-0.1034483"><ele>27.0</ele><time>2026-04-15T09:10:46.076Z</time></trkpt><trkpt lat="51.4562083" lon="-0.1034733"><ele>27.0</ele><time>2026-04-15T09:10:47.076Z</time></trkpt><trkpt lat="51.4562883" lon="-0.1034933"><ele>27.0</ele><time>2026-04-15T09:10:48.076Z</time></trkpt><trkpt lat="51.4563717" lon="-0.10351"><ele>27.0</ele><time>2026-04-15T09:10:49.076Z</time></trkpt><trkpt lat="51.4564583" lon="-0.1035217"><ele>26.833333333333332</ele><time>2026-04-15T09:10:50.076Z</time></trkpt><trkpt lat="51.4565417" lon="-0.1035317"><ele>26.666666666666664</ele><time>2026-04-15T09:10:51.078Z</time></trkpt><trkpt lat="51.4566267" lon="-0.1035267"><ele>26.5</ele><time>2026-04-15T09:10:52.077Z</time></trkpt><trkpt lat="51.4567117" lon="-0.1035067"><ele>26.333333333333332</ele><time>2026-04-15T09:10:53.077Z</time></trkpt><trkpt lat="51.456805" lon="-0.103465"><ele>26.166666666666664</ele><time>2026-04-15T09:10:54.077Z</time></trkpt><trkpt lat="51.456885" lon="-0.1034367"><ele>26.0</ele><time>2026-04-15T09:10:55.077Z</time></trkpt><trkpt lat="51.4569533" lon="-0.1034033"><ele>26.0</ele><time>2026-04-15T09:10:56.08Z</time></trkpt><trkpt lat="51.4570667" lon="-0.1033683"><ele>26.0</ele><time>2026-04-15T09:10:58.077Z</time></trkpt><trkpt lat="51.4571317" lon="-0.1033533"><ele>26.0</ele><time>2026-04-15T09:10:59.078Z</time></trkpt><trkpt lat="51.4571967" lon="-0.1033267"><ele>26.0</ele><time>2026-04-15T09:11:00.076Z</time></trkpt><trkpt lat="51.4572633" lon="-0.1032967"><ele>26.0</ele><time>2026-04-15T09:11:01.079Z</time></trkpt><trkpt lat="51.4573267" lon="-0.10327"><ele>26.0</ele><time>2026-04-15T09:11:02.076Z</time></trkpt><trkpt lat="51.4573883" lon="-0.103235"><ele>26.0</ele><time>2026-04-15T09:11:03.079Z</time></trkpt><trkpt lat="51.4574567" lon="-0.103205"><ele>26.499999999999996</ele><time>2026-04-15T09:11:04.081Z</time></trkpt><trkpt lat="51.4575367" lon="-0.10317"><ele>27.0</ele><time>2026-04-15T09:11:05.08Z</time></trkpt><trkpt lat="51.4576217" lon="-0.103125"><ele>27.5</ele><time>2026-04-15T09:11:06.081Z</time></trkpt><trkpt lat="51.4577017" lon="-0.1030633"><ele>28.0</ele><time>2026-04-15T09:11:07.078Z</time></trkpt><trkpt lat="51.4577783" lon="-0.1030067"><ele>28.499999999999996</ele><time>2026-04-15T09:11:08.079Z</time></trkpt><trkpt lat="51.4578533" lon="-0.102945"><ele>29.0</ele><time>2026-04-15T09:11:09.076Z</time></trkpt><trkpt lat="51.457935" lon="-0.1028767"><ele>27.799999999999997</ele><time>2026-04-15T09:11:10.078Z</time></trkpt><trkpt lat="51.4580233" lon="-0.1028067"><ele>26.599999999999998</ele><time>2026-04-15T09:11:11.075Z</time></trkpt><trkpt lat="51.4581117" lon="-0.1027467"><ele>25.4</ele><time>2026-04-15T09:11:12.076Z</time></trkpt><trkpt lat="51.458195" lon="-0.1026917"><ele>24.2</ele><time>2026-04-15T09:11:13.08Z</time></trkpt><trkpt lat="51.4582767" lon="-0.1026383"><ele>23.0</ele><time>2026-04-15T09:11:14.077Z</time></trkpt><trkpt lat="51.4583567" lon="-0.1025833"><ele>23.0</ele><time>2026-04-15T09:11:15.076Z</time></trkpt><trkpt lat="51.458435" lon="-0.1025383"><ele>23.0</ele><time>2026-04-15T09:11:16.077Z</time></trkpt><trkpt lat="51.4585133" lon="-0.1024983"><ele>23.0</ele><time>2026-04-15T09:11:17.077Z</time></trkpt><trkpt lat="51.458595" lon="-0.10247"><ele>23.0</ele><time>2026-04-15T09:11:18.077Z</time></trkpt><trkpt lat="51.45868" lon="-0.1024383"><ele>23.0</ele><time>2026-04-15T09:11:19.08Z</time></trkpt><trkpt lat="51.4587633" lon="-0.1024117"><ele>23.0</ele><time>2026-04-15T09:11:20.076Z</time></trkpt><trkpt lat="51.4588467" lon="-0.10238"><ele>23.75</ele><time>2026-04-15T09:11:21.075Z</time></trkpt><trkpt lat="51.4589333" lon="-0.1023417"><ele>24.5</ele><time>2026-04-15T09:11:22.077Z</time></trkpt><trkpt lat="51.4590333" lon="-0.1023017"><ele>25.25</ele><time>2026-04-15T09:11:23.078Z</time></trkpt><trkpt lat="51.4591583" lon="-0.1022517"><ele>26.0</ele><time>2026-04-15T09:11:24.077Z</time></trkpt><trkpt lat="51.4593" lon="-0.1022033"><ele>26.0</ele><time>2026-04-15T09:11:25.078Z</time></trkpt><trkpt lat="51.4594583" lon="-0.10215"><ele>26.0</ele><time>2026-04-15T09:11:26.076Z</time></trkpt><trkpt lat="51.4596183" lon="-0.1020883"><ele>26.0</ele><time>2026-04-15T09:11:27.079Z</time></trkpt><trkpt lat="51.4597733" lon="-0.1020333"><ele>24.75</ele><time>2026-04-15T09:11:28.076Z</time></trkpt><trkpt lat="51.4599233" lon="-0.101985"><ele>23.5</ele><time>2026-04-15T09:11:29.079Z</time></trkpt><trkpt lat="51.4600617" lon="-0.1019417"><ele>22.25</ele><time>2026-04-15T09:11:30.078Z</time></trkpt><trkpt lat="51.4601983" lon="-0.101905"><ele>21.0</ele><time>2026-04-15T09:11:31.077Z</time></trkpt><trkpt lat="51.4603367" lon="-0.101855"><ele>19.666666666666668</ele><time>2026-04-15T09:11:32.076Z</time></trkpt><trkpt lat="51.46048" lon="-0.1017867"><ele>18.333333333333336</ele><time>2026-04-15T09:11:33.077Z</time></trkpt><trkpt lat="51.4606333" lon="-0.1017383"><ele>17.0</ele><time>2026-04-15T09:11:34.079Z</time></trkpt><trkpt lat="51.4607817" lon="-0.1016867"><ele>17.0</ele><time>2026-04-15T09:11:35.079Z</time></trkpt><trkpt lat="51.4609183" lon="-0.101635"><ele>17.0</ele><time>2026-04-15T09:11:36.076Z</time></trkpt><trkpt lat="51.46105" lon="-0.1015883"><ele>17.0</ele><time>2026-04-15T09:11:37.08Z</time></trkpt><trkpt lat="51.4611767" lon="-0.101545"><ele>17.0</ele><time>2026-04-15T09:11:38.076Z</time></trkpt><trkpt lat="51.4613033" lon="-0.1014967"><ele>17.75</ele><time>2026-04-15T09:11:39.076Z</time></trkpt><trkpt lat="51.4614333" lon="-0.101445"><ele>18.5</ele><time>2026-04-15T09:11:40.077Z</time></trkpt><trkpt lat="51.4615683" lon="-0.1013917"><ele>19.25</ele><time>2026-04-15T09:11:41.076Z</time></trkpt><trkpt lat="51.461705" lon="-0.1013417"><ele>20.0</ele><time>2026-04-15T09:11:42.076Z</time></trkpt><trkpt lat="51.4618433" lon="-0.1012833"><ele>20.0</ele><time>2026-04-15T09:11:43.076Z</time></trkpt><trkpt lat="51.4619783" lon="-0.1012333"><ele>20.0</ele><time>2026-04-15T09:11:44.075Z</time></trkpt><trkpt lat="51.462115" lon="-0.1011917"><ele>20.0</ele><time>2026-04-15T09:11:45.075Z</time></trkpt><trkpt lat="51.4622533" lon="-0.1011833"><ele>20.0</ele><time>2026-04-15T09:11:46.075Z</time></trkpt><trkpt lat="51.462385" lon="-0.1012017"><ele>19.75</ele><time>2026-04-15T09:11:47.076Z</time></trkpt><trkpt lat="51.4625167" lon="-0.10124"><ele>19.5</ele><time>2026-04-15T09:11:48.075Z</time></trkpt><trkpt lat="51.462645" lon="-0.1012767"><ele>19.25</ele><time>2026-04-15T09:11:49.076Z</time></trkpt><trkpt lat="51.4627717" lon="-0.101295"><ele>19.0</ele><time>2026-04-15T09:11:50.076Z</time></trkpt><trkpt lat="51.4629067" lon="-0.1012933"><ele>19.25</ele><time>2026-04-15T09:11:51.075Z</time></trkpt><trkpt lat="51.4630383" lon="-0.10128"><ele>19.5</ele><time>2026-04-15T09:11:52.075Z</time></trkpt><trkpt lat="51.463165" lon="-0.1012617"><ele>19.75</ele><time>2026-04-15T09:11:53.076Z</time></trkpt><trkpt lat="51.4632817" lon="-0.101245"><ele>20.0</ele><time>2026-04-15T09:11:54.075Z</time></trkpt><trkpt lat="51.4634017" lon="-0.1012233"><ele>20.0</ele><time>2026-04-15T09:11:55.075Z</time></trkpt><trkpt lat="51.4635283" lon="-0.101195"><ele>20.0</ele><time>2026-04-15T09:11:56.075Z</time></trkpt><trkpt lat="51.4636583" lon="-0.101175"><ele>20.0</ele><time>2026-04-15T09:11:57.075Z</time></trkpt><trkpt lat="51.46378" lon="-0.10116"><ele>20.0</ele><time>2026-04-15T09:11:58.075Z</time></trkpt><trkpt lat="51.463895" lon="-0.1011517"><ele>19.5</ele><time>2026-04-15T09:11:59.076Z</time></trkpt><trkpt lat="51.464" lon="-0.101145"><ele>19.0</ele><time>2026-04-15T09:12:00.076Z</time></trkpt><trkpt lat="51.4640933" lon="-0.10114"><ele>18.5</ele><time>2026-04-15T09:12:01.077Z</time></trkpt><trkpt lat="51.46418" lon="-0.101165"><ele>18.0</ele><time>2026-04-15T09:12:02.076Z</time></trkpt><trkpt lat="51.464255" lon="-0.101195"><ele>17.5</ele><time>2026-04-15T09:12:03.075Z</time></trkpt><trkpt lat="51.46432" lon="-0.101245"><ele>17.0</ele><time>2026-04-15T09:12:04.076Z</time></trkpt><trkpt lat="51.4643733" lon="-0.1013083"><ele>17.0</ele><time>2026-04-15T09:12:05.076Z</time></trkpt><trkpt lat="51.4644233" lon="-0.1013767"><ele>17.0</ele><time>2026-04-15T09:12:06.075Z</time></trkpt><trkpt lat="51.4645067" lon="-0.1015083"><ele>17.0</ele><time>2026-04-15T09:12:08.075Z</time></trkpt><trkpt lat="51.4645983" lon="-0.1016333"><ele>17.0</ele><time>2026-04-15T09:12:10.076Z</time></trkpt><trkpt lat="51.4646467" lon="-0.101705"><ele>17.0</ele><time>2026-04-15T09:12:11.075Z</time></trkpt><trkpt lat="51.4646967" lon="-0.1017783"><ele>17.0</ele><time>2026-04-15T09:12:12.075Z</time></trkpt><trkpt lat="51.464745" lon="-0.10185"><ele>17.0</ele><time>2026-04-15T09:12:13.076Z</time></trkpt><trkpt lat="51.464835" lon="-0.1019633"><ele>17.0</ele><time>2026-04-15T09:12:15.074Z</time></trkpt><trkpt lat="51.46492" lon="-0.1020633"><ele>17.0</ele><time>2026-04-15T09:12:17.076Z</time></trkpt><trkpt lat="51.4650017" lon="-0.10219"><ele>17.0</ele><time>2026-04-15T09:12:19.075Z</time></trkpt><trkpt lat="51.465085" lon="-0.1022967"><ele>17.0</ele><time>2026-04-15T09:12:21.076Z</time></trkpt><trkpt lat="51.465175" lon="-0.1023717"><ele>17.2</ele><time>2026-04-15T09:12:23.076Z</time></trkpt><trkpt lat="51.4652633" lon="-0.1024617"><ele>17.4</ele><time>2026-04-15T09:12:25.075Z</time></trkpt><trkpt lat="51.4653417" lon="-0.10256"><ele>17.6</ele><time>2026-04-15T09:12:27.076Z</time></trkpt><trkpt lat="51.4654167" lon="-0.1026367"><ele>17.8</ele><time>2026-04-15T09:12:29.076Z</time></trkpt><trkpt lat="51.4654767" lon="-0.1027"><ele>18.0</ele><time>2026-04-15T09:12:32.075Z</time></trkpt><trkpt lat="51.4655367" lon="-0.1028333"><ele>17.666666666666668</ele><time>2026-04-15T09:12:56.076Z</time></trkpt><trkpt lat="51.4655833" lon="-0.10292"><ele>17.333333333333332</ele><time>2026-04-15T09:12:57.079Z</time></trkpt><trkpt lat="51.4656433" lon="-0.1030333"><ele>17.0</ele><time>2026-04-15T09:12:58.077Z</time></trkpt><trkpt lat="51.4657033" lon="-0.1031367"><ele>16.666666666666664</ele><time>2026-04-15T09:12:59.076Z</time></trkpt><trkpt lat="51.465765" lon="-0.1032383"><ele>16.333333333333332</ele><time>2026-04-15T09:13:00.075Z</time></trkpt><trkpt lat="51.4658267" lon="-0.10334"><ele>16.0</ele><time>2026-04-15T09:13:01.076Z</time></trkpt><trkpt lat="51.4658917" lon="-0.1034317"><ele>15.999999999999998</ele><time>2026-04-15T09:13:02.075Z</time></trkpt><trkpt lat="51.4659583" lon="-0.1035183"><ele>16.0</ele><time>2026-04-15T09:13:03.077Z</time></trkpt><trkpt lat="51.4660233" lon="-0.1035967"><ele>16.0</ele><time>2026-04-15T09:13:04.076Z</time></trkpt><trkpt lat="51.4660833" lon="-0.1036767"><ele>16.0</ele><time>2026-04-15T09:13:05.076Z</time></trkpt><trkpt lat="51.466145" lon="-0.1037483"><ele>15.999999999999998</ele><time>2026-04-15T09:13:06.075Z</time></trkpt><trkpt lat="51.466205" lon="-0.103825"><ele>16.0</ele><time>2026-04-15T09:13:07.075Z</time></trkpt><trkpt lat="51.4662633" lon="-0.10391"><ele>15.833333333333332</ele><time>2026-04-15T09:13:08.076Z</time></trkpt><trkpt lat="51.466325" lon="-0.1039833"><ele>15.666666666666666</ele><time>2026-04-15T09:13:09.076Z</time></trkpt><trkpt lat="51.4663817" lon="-0.1040617"><ele>15.5</ele><time>2026-04-15T09:13:10.075Z</time></trkpt><trkpt lat="51.4664367" lon="-0.1041433"><ele>15.333333333333332</ele><time>2026-04-15T09:13:11.077Z</time></trkpt><trkpt lat="51.4664983" lon="-0.1042183"><ele>15.166666666666666</ele><time>2026-04-15T09:13:12.075Z</time></trkpt><trkpt lat="51.4665617" lon="-0.1042983"><ele>15.0</ele><time>2026-04-15T09:13:13.075Z</time></trkpt><trkpt lat="51.46662" lon="-0.1043783"><ele>15.0</ele><time>2026-04-15T09:13:14.075Z</time></trkpt><trkpt lat="51.4666783" lon="-0.104455"><ele>15.0</ele><time>2026-04-15T09:13:15.076Z</time></trkpt><trkpt lat="51.4667333" lon="-0.1045233"><ele>15.0</ele><time>2026-04-15T09:13:16.076Z</time></trkpt><trkpt lat="51.466835" lon="-0.10463"><ele>15.0</ele><time>2026-04-15T09:13:18.076Z</time></trkpt><trkpt lat="51.46689" lon="-0.1046967"><ele>15.0</ele><time>2026-04-15T09:13:19.077Z</time></trkpt><trkpt lat="51.46695" lon="-0.1047783"><ele>15.0</ele><time>2026-04-15T09:13:20.075Z</time></trkpt><trkpt lat="51.4670233" lon="-0.104865"><ele>14.4</ele><time>2026-04-15T09:13:21.076Z</time></trkpt><trkpt lat="51.4671133" lon="-0.10497"><ele>13.8</ele><time>2026-04-15T09:13:22.075Z</time></trkpt><trkpt lat="51.4671983" lon="-0.1050633"><ele>13.2</ele><time>2026-04-15T09:13:23.075Z</time></trkpt><trkpt lat="51.4672783" lon="-0.105145"><ele>12.6</ele><time>2026-04-15T09:13:24.075Z</time></trkpt><trkpt lat="51.4673567" lon="-0.1052217"><ele>12.0</ele><time>2026-04-15T09:13:25.076Z</time></trkpt><trkpt lat="51.4674317" lon="-0.1052717"><ele>12.0</ele><time>2026-04-15T09:13:26.076Z</time></trkpt><trkpt lat="51.467515" lon="-0.1053233"><ele>12.0</ele><time>2026-04-15T09:13:27.075Z</time></trkpt><trkpt lat="51.4676033" lon="-0.105385"><ele>12.0</ele><time>2026-04-15T09:13:28.076Z</time></trkpt><trkpt lat="51.4677117" lon="-0.1054517"><ele>12.0</ele><time>2026-04-15T09:13:29.076Z</time></trkpt><trkpt lat="51.467845" lon="-0.1055167"><ele>12.0</ele><time>2026-04-15T09:13:30.076Z</time></trkpt><trkpt lat="51.4679983" lon="-0.1055917"><ele>12.333333333333332</ele><time>2026-04-15T09:13:31.076Z</time></trkpt><trkpt lat="51.468145" lon="-0.1056717"><ele>12.666666666666666</ele><time>2026-04-15T09:13:32.077Z</time></trkpt><trkpt lat="51.46829" lon="-0.105755"><ele>13.0</ele><time>2026-04-15T09:13:33.075Z</time></trkpt><trkpt lat="51.468425" lon="-0.1058367"><ele>12.5</ele><time>2026-04-15T09:13:34.075Z</time></trkpt><trkpt lat="51.4685517" lon="-0.1059067"><ele>12.0</ele><time>2026-04-15T09:13:35.077Z</time></trkpt><trkpt lat="51.4686717" lon="-0.10597"><ele>11.5</ele><time>2026-04-15T09:13:36.076Z</time></trkpt><trkpt lat="51.4687817" lon="-0.1060367"><ele>11.0</ele><time>2026-04-15T09:13:37.076Z</time></trkpt><trkpt lat="51.4688867" lon="-0.106095"><ele>10.75</ele><time>2026-04-15T09:13:38.076Z</time></trkpt><trkpt lat="51.4690033" lon="-0.1061583"><ele>10.5</ele><time>2026-04-15T09:13:39.075Z</time></trkpt><trkpt lat="51.46912" lon="-0.1062233"><ele>10.25</ele><time>2026-04-15T09:13:40.076Z</time></trkpt><trkpt lat="51.4692383" lon="-0.1062883"><ele>10.0</ele><time>2026-04-15T09:13:41.079Z</time></trkpt><trkpt lat="51.46935" lon="-0.106355"><ele>10.0</ele><time>2026-04-15T09:13:42.077Z</time></trkpt><trkpt lat="51.4694583" lon="-0.1064283"><ele>10.0</ele><time>2026-04-15T09:13:43.076Z</time></trkpt><trkpt lat="51.4695667" lon="-0.1065"><ele>10.0</ele><time>2026-04-15T09:13:44.075Z</time></trkpt><trkpt lat="51.4696717" lon="-0.1065633"><ele>10.0</ele><time>2026-04-15T09:13:45.075Z</time></trkpt><trkpt lat="51.4697817" lon="-0.106625"><ele>10.25</ele><time>2026-04-15T09:13:46.076Z</time></trkpt><trkpt lat="51.4698983" lon="-0.106695"><ele>10.5</ele><time>2026-04-15T09:13:47.076Z</time></trkpt><trkpt lat="51.4700133" lon="-0.10677"><ele>10.75</ele><time>2026-04-15T09:13:48.075Z</time></trkpt><trkpt lat="51.4701183" lon="-0.1068467"><ele>11.0</ele><time>2026-04-15T09:13:49.077Z</time></trkpt><trkpt lat="51.4702033" lon="-0.1069017"><ele>11.0</ele><time>2026-04-15T09:13:50.075Z</time></trkpt><trkpt lat="51.4702617" lon="-0.1069433"><ele>11.0</ele><time>2026-04-15T09:13:51.078Z</time></trkpt><trkpt lat="51.4703167" lon="-0.1069933"><ele>11.0</ele><time>2026-04-15T09:13:53.078Z</time></trkpt><trkpt lat="51.4703767" lon="-0.10703"><ele>11.0</ele><time>2026-04-15T09:14:31.076Z</time></trkpt><trkpt lat="51.4704733" lon="-0.1071017"><ele>11.0</ele><time>2026-04-15T09:14:33.076Z</time></trkpt><trkpt lat="51.4705383" lon="-0.1071583"><ele>11.0</ele><time>2026-04-15T09:14:34.076Z</time></trkpt><trkpt lat="51.4706133" lon="-0.10721"><ele>10.8</ele><time>2026-04-15T09:14:35.078Z</time></trkpt><trkpt lat="51.4707033" lon="-0.1072433"><ele>10.600000000000001</ele><time>2026-04-15T09:14:36.076Z</time></trkpt><trkpt lat="51.470795" lon="-0.1072567"><ele>10.4</ele><time>2026-04-15T09:14:37.076Z</time></trkpt><trkpt lat="51.470895" lon="-0.10727"><ele>10.2</ele><time>2026-04-15T09:14:38.077Z</time></trkpt><trkpt lat="51.4709967" lon="-0.1072733"><ele>10.0</ele><time>2026-04-15T09:14:39.075Z</time></trkpt><trkpt lat="51.471095" lon="-0.1072883"><ele>10.0</ele><time>2026-04-15T09:14:40.076Z</time></trkpt><trkpt lat="51.4712" lon="-0.1073017"><ele>10.0</ele><time>2026-04-15T09:14:41.077Z</time></trkpt><trkpt lat="51.47131" lon="-0.1073133"><ele>10.0</ele><time>2026-04-15T09:14:42.076Z</time></trkpt><trkpt lat="51.47142" lon="-0.1073283"><ele>10.0</ele><time>2026-04-15T09:14:43.077Z</time></trkpt><trkpt lat="51.4715267" lon="-0.1073417"><ele>10.0</ele><time>2026-04-15T09:14:44.08Z</time></trkpt><trkpt lat="51.4716283" lon="-0.1073617"><ele>10.0</ele><time>2026-04-15T09:14:45.078Z</time></trkpt><trkpt lat="51.4717283" lon="-0.1073817"><ele>10.0</ele><time>2026-04-15T09:14:46.078Z</time></trkpt><trkpt lat="51.47183" lon="-0.1073917"><ele>10.0</ele><time>2026-04-15T09:14:47.078Z</time></trkpt><trkpt lat="51.4719317" lon="-0.1073983"><ele>10.0</ele><time>2026-04-15T09:14:48.078Z</time></trkpt><trkpt lat="51.4720333" lon="-0.1074"><ele>10.0</ele><time>2026-04-15T09:14:49.078Z</time></trkpt><trkpt lat="51.4721267" lon="-0.107405"><ele>10.0</ele><time>2026-04-15T09:14:50.077Z</time></trkpt><trkpt lat="51.47222" lon="-0.1074067"><ele>10.0</ele><time>2026-04-15T09:14:51.079Z</time></trkpt><trkpt lat="51.4723083" lon="-0.10742"><ele>10.0</ele><time>2026-04-15T09:14:52.078Z</time></trkpt><trkpt lat="51.47239" lon="-0.1074333"><ele>10.0</ele><time>2026-04-15T09:14:53.078Z</time></trkpt><trkpt lat="51.472475" lon="-0.1074383"><ele>10.0</ele><time>2026-04-15T09:14:54.081Z</time></trkpt><trkpt lat="51.472555" lon="-0.1074383"><ele>10.0</ele><time>2026-04-15T09:14:55.075Z</time></trkpt><trkpt lat="51.47263" lon="-0.1074333"><ele>9.666666666666668</ele><time>2026-04-15T09:14:56.076Z</time></trkpt><trkpt lat="51.472735" lon="-0.1074317"><ele>9.333333333333334</ele><time>2026-04-15T09:14:58.077Z</time></trkpt><trkpt lat="51.4728033" lon="-0.1074433"><ele>9.0</ele><time>2026-04-15T09:15:01.076Z</time></trkpt><trkpt lat="51.472875" lon="-0.1074817"><ele>8.666666666666666</ele><time>2026-04-15T09:15:04.075Z</time></trkpt><trkpt lat="51.472935" lon="-0.107555"><ele>8.333333333333332</ele><time>2026-04-15T09:15:06.075Z</time></trkpt><trkpt lat="51.4729683" lon="-0.1076867"><ele>8.0</ele><time>2026-04-15T09:15:08.076Z</time></trkpt><trkpt lat="51.4729333" lon="-0.1078683"><ele>8.0</ele><time>2026-04-15T09:15:10.078Z</time></trkpt><trkpt lat="51.4729217" lon="-0.1079983"><ele>8.0</ele><time>2026-04-15T09:15:11.077Z</time></trkpt><trkpt lat="51.4728933" lon="-0.1081517"><ele>8.0</ele><time>2026-04-15T09:15:12.076Z</time></trkpt><trkpt lat="51.4728517" lon="-0.1083467"><ele>8.0</ele><time>2026-04-15T09:15:13.076Z</time></trkpt><trkpt lat="51.4728067" lon="-0.1085333"><ele>8.0</ele><time>2026-04-15T09:15:14.075Z</time></trkpt><trkpt lat="51.4727767" lon="-0.1087183"><ele>8.0</ele><time>2026-04-15T09:15:15.077Z</time></trkpt><trkpt lat="51.47276" lon="-0.1088867"><ele>8.0</ele><time>2026-04-15T09:15:16.075Z</time></trkpt><trkpt lat="51.47273" lon="-0.10908"><ele>8.0</ele><time>2026-04-15T09:15:17.076Z</time></trkpt><trkpt lat="51.4726967" lon="-0.1092733"><ele>8.0</ele><time>2026-04-15T09:15:18.076Z</time></trkpt><trkpt lat="51.4726533" lon="-0.1094933"><ele>8.0</ele><time>2026-04-15T09:15:19.075Z</time></trkpt><trkpt lat="51.4726217" lon="-0.1097067"><ele>8.0</ele><time>2026-04-15T09:15:20.075Z</time></trkpt><trkpt lat="51.4725917" lon="-0.1099167"><ele>8.0</ele><time>2026-04-15T09:15:21.076Z</time></trkpt><trkpt lat="51.472565" lon="-0.110125"><ele>8.0</ele><time>2026-04-15T09:15:22.077Z</time></trkpt><trkpt lat="51.4725417" lon="-0.11033"><ele>8.5</ele><time>2026-04-15T09:15:23.076Z</time></trkpt><trkpt lat="51.4725283" lon="-0.1105383"><ele>9.0</ele><time>2026-04-15T09:15:24.077Z</time></trkpt><trkpt lat="51.472525" lon="-0.1107683"><ele>9.5</ele><time>2026-04-15T09:15:25.077Z</time></trkpt><trkpt lat="51.4725233" lon="-0.1109983"><ele>10.0</ele><time>2026-04-15T09:15:26.076Z</time></trkpt><trkpt lat="51.4725217" lon="-0.1112167"><ele>10.0</ele><time>2026-04-15T09:15:27.076Z</time></trkpt><trkpt lat="51.4725083" lon="-0.1114217"><ele>10.0</ele><time>2026-04-15T09:15:28.077Z</time></trkpt><trkpt lat="51.4724917" lon="-0.11162"><ele>10.0</ele><time>2026-04-15T09:15:29.076Z</time></trkpt><trkpt lat="51.4724667" lon="-0.1118133"><ele>10.0</ele><time>2026-04-15T09:15:30.075Z</time></trkpt><trkpt lat="51.4724383" lon="-0.1120067"><ele>10.0</ele><time>2026-04-15T09:15:31.077Z</time></trkpt><trkpt lat="51.4724133" lon="-0.1121783"><ele>10.0</ele><time>2026-04-15T09:15:32.076Z</time></trkpt><trkpt lat="51.472405" lon="-0.11232"><ele>10.0</ele><time>2026-04-15T09:15:33.076Z</time></trkpt><trkpt lat="51.4723917" lon="-0.1124283"><ele>10.0</ele><time>2026-04-15T09:15:34.077Z</time></trkpt><trkpt lat="51.4723733" lon="-0.1125967"><ele>10.0</ele><time>2026-04-15T09:15:36.076Z</time></trkpt><trkpt lat="51.4723767" lon="-0.1127333"><ele>10.0</ele><time>2026-04-15T09:15:40.075Z</time></trkpt><trkpt lat="51.472425" lon="-0.11281"><ele>10.0</ele><time>2026-04-15T09:15:42.077Z</time></trkpt><trkpt lat="51.472545" lon="-0.1128633"><ele>10.0</ele><time>2026-04-15T09:15:44.076Z</time></trkpt><trkpt lat="51.4726567" lon="-0.11283"><ele>10.0</ele><time>2026-04-15T09:15:45.076Z</time></trkpt><trkpt lat="51.472755" lon="-0.1128183"><ele>10.0</ele><time>2026-04-15T09:15:46.076Z</time></trkpt><trkpt lat="51.4728367" lon="-0.112815"><ele>10.0</ele><time>2026-04-15T09:15:47.076Z</time></trkpt><trkpt lat="51.4729167" lon="-0.1128133"><ele>10.0</ele><time>2026-04-15T09:15:48.075Z</time></trkpt><trkpt lat="51.4729983" lon="-0.1128117"><ele>10.0</ele><time>2026-04-15T09:15:49.076Z</time></trkpt><trkpt lat="51.4730783" lon="-0.1128067"><ele>10.0</ele><time>2026-04-15T09:15:50.075Z</time></trkpt><trkpt lat="51.4731583" lon="-0.112815"><ele>10.0</ele><time>2026-04-15T09:15:51.075Z</time></trkpt><trkpt lat="51.4732383" lon="-0.1128067"><ele>10.0</ele><time>2026-04-15T09:15:52.077Z</time></trkpt><trkpt lat="51.47332" lon="-0.1127883"><ele>9.833333333333334</ele><time>2026-04-15T09:15:53.076Z</time></trkpt><trkpt lat="51.4733983" lon="-0.1127767"><ele>9.666666666666668</ele><time>2026-04-15T09:15:54.077Z</time></trkpt><trkpt lat="51.4734817" lon="-0.1127717"><ele>9.5</ele><time>2026-04-15T09:15:55.077Z</time></trkpt><trkpt lat="51.4735633" lon="-0.1127683"><ele>9.333333333333334</ele><time>2026-04-15T09:15:56.076Z</time></trkpt><trkpt lat="51.473645" lon="-0.1127617"><ele>9.166666666666666</ele><time>2026-04-15T09:15:57.075Z</time></trkpt><trkpt lat="51.4737267" lon="-0.11276"><ele>9.0</ele><time>2026-04-15T09:15:58.076Z</time></trkpt><trkpt lat="51.4738083" lon="-0.11276"><ele>9.0</ele><time>2026-04-15T09:15:59.077Z</time></trkpt><trkpt lat="51.4738917" lon="-0.112755"><ele>9.0</ele><time>2026-04-15T09:16:00.076Z</time></trkpt><trkpt lat="51.4739733" lon="-0.1127517"><ele>9.0</ele><time>2026-04-15T09:16:01.076Z</time></trkpt><trkpt lat="51.47405" lon="-0.1127417"><ele>9.0</ele><time>2026-04-15T09:16:02.076Z</time></trkpt><trkpt lat="51.4741233" lon="-0.1127367"><ele>9.0</ele><time>2026-04-15T09:16:03.076Z</time></trkpt><trkpt lat="51.4741967" lon="-0.1127333"><ele>9.0</ele><time>2026-04-15T09:16:04.075Z</time></trkpt><trkpt lat="51.4742733" lon="-0.112725"><ele>9.0</ele><time>2026-04-15T09:16:05.077Z</time></trkpt><trkpt lat="51.474355" lon="-0.112725"><ele>9.0</ele><time>2026-04-15T09:16:06.075Z</time></trkpt><trkpt lat="51.4744383" lon="-0.1127183"><ele>9.0</ele><time>2026-04-15T09:16:07.078Z</time></trkpt><trkpt lat="51.4745233" lon="-0.1127167"><ele>9.0</ele><time>2026-04-15T09:16:08.076Z</time></trkpt><trkpt lat="51.4746117" lon="-0.1127067"><ele>9.0</ele><time>2026-04-15T09:16:09.077Z</time></trkpt><trkpt lat="51.4747017" lon="-0.1127"><ele>9.0</ele><time>2026-04-15T09:16:10.076Z</time></trkpt><trkpt lat="51.4747883" lon="-0.1126917"><ele>9.333333333333334</ele><time>2026-04-15T09:16:11.077Z</time></trkpt><trkpt lat="51.47488" lon="-0.1126883"><ele>9.666666666666666</ele><time>2026-04-15T09:16:12.075Z</time></trkpt><trkpt lat="51.4749667" lon="-0.1126783"><ele>10.0</ele><time>2026-04-15T09:16:13.075Z</time></trkpt><trkpt lat="51.4750517" lon="-0.1126683"><ele>10.333333333333332</ele><time>2026-04-15T09:16:14.076Z</time></trkpt><trkpt lat="51.4751333" lon="-0.1126533"><ele>10.666666666666666</ele><time>2026-04-15T09:16:15.078Z</time></trkpt><trkpt lat="51.4752167" lon="-0.112645"><ele>11.0</ele><time>2026-04-15T09:16:16.079Z</time></trkpt><trkpt lat="51.4753017" lon="-0.1126383"><ele>11.0</ele><time>2026-04-15T09:16:17.078Z</time></trkpt><trkpt lat="51.4753867" lon="-0.1126317"><ele>11.0</ele><time>2026-04-15T09:16:18.078Z</time></trkpt><trkpt lat="51.4754717" lon="-0.1126167"><ele>11.0</ele><time>2026-04-15T09:16:19.079Z</time></trkpt><trkpt lat="51.475555" lon="-0.1126033"><ele>11.0</ele><time>2026-04-15T09:16:20.077Z</time></trkpt><trkpt lat="51.475635" lon="-0.1125883"><ele>11.0</ele><time>2026-04-15T09:16:21.075Z</time></trkpt><trkpt lat="51.4757167" lon="-0.1125733"><ele>11.0</ele><time>2026-04-15T09:16:22.076Z</time></trkpt><trkpt lat="51.4758" lon="-0.1125683"><ele>10.833333333333332</ele><time>2026-04-15T09:16:23.077Z</time></trkpt><trkpt lat="51.475885" lon="-0.11256"><ele>10.666666666666666</ele><time>2026-04-15T09:16:24.077Z</time></trkpt><trkpt lat="51.47597" lon="-0.112555"><ele>10.5</ele><time>2026-04-15T09:16:25.077Z</time></trkpt><trkpt lat="51.4760533" lon="-0.112535"><ele>10.333333333333334</ele><time>2026-04-15T09:16:26.076Z</time></trkpt><trkpt lat="51.4761367" lon="-0.1125283"><ele>10.166666666666668</ele><time>2026-04-15T09:16:27.077Z</time></trkpt><trkpt lat="51.4762167" lon="-0.11251"><ele>10.0</ele><time>2026-04-15T09:16:28.077Z</time></trkpt><trkpt lat="51.4762967" lon="-0.1125"><ele>10.0</ele><time>2026-04-15T09:16:29.077Z</time></trkpt><trkpt lat="51.47638" lon="-0.1124883"><ele>10.0</ele><time>2026-04-15T09:16:30.076Z</time></trkpt><trkpt lat="51.47646" lon="-0.1124767"><ele>10.0</ele><time>2026-04-15T09:16:31.077Z</time></trkpt><trkpt lat="51.4765383" lon="-0.11247"><ele>10.0</ele><time>2026-04-15T09:16:32.081Z</time></trkpt><trkpt lat="51.4766117" lon="-0.112465"><ele>10.0</ele><time>2026-04-15T09:16:33.077Z</time></trkpt><trkpt lat="51.4766867" lon="-0.1124567"><ele>10.0</ele><time>2026-04-15T09:16:34.077Z</time></trkpt><trkpt lat="51.47676" lon="-0.1124567"><ele>10.0</ele><time>2026-04-15T09:16:35.077Z</time></trkpt><trkpt lat="51.4768333" lon="-0.1124433"><ele>10.0</ele><time>2026-04-15T09:16:36.075Z</time></trkpt><trkpt lat="51.4769083" lon="-0.1124383"><ele>10.0</ele><time>2026-04-15T09:16:37.077Z</time></trkpt><trkpt lat="51.4769883" lon="-0.112425"><ele>10.0</ele><time>2026-04-15T09:16:38.076Z</time></trkpt><trkpt lat="51.4770717" lon="-0.1124167"><ele>10.0</ele><time>2026-04-15T09:16:39.078Z</time></trkpt><trkpt lat="51.4771517" lon="-0.1124033"><ele>10.0</ele><time>2026-04-15T09:16:40.076Z</time></trkpt><trkpt lat="51.4772317" lon="-0.1123933"><ele>9.833333333333334</ele><time>2026-04-15T09:16:41.08Z</time></trkpt><trkpt lat="51.4773133" lon="-0.11238"><ele>9.666666666666668</ele><time>2026-04-15T09:16:42.076Z</time></trkpt><trkpt lat="51.4773933" lon="-0.1123633"><ele>9.5</ele><time>2026-04-15T09:16:43.076Z</time></trkpt><trkpt lat="51.47747" lon="-0.1123467"><ele>9.333333333333334</ele><time>2026-04-15T09:16:44.076Z</time></trkpt><trkpt lat="51.477545" lon="-0.11233"><ele>9.166666666666666</ele><time>2026-04-15T09:16:45.075Z</time></trkpt><trkpt lat="51.47762" lon="-0.11232"><ele>9.0</ele><time>2026-04-15T09:16:46.077Z</time></trkpt><trkpt lat="51.477695" lon="-0.1123017"><ele>9.0</ele><time>2026-04-15T09:16:47.076Z</time></trkpt><trkpt lat="51.4777733" lon="-0.112285"><ele>9.0</ele><time>2026-04-15T09:16:48.076Z</time></trkpt><trkpt lat="51.4778467" lon="-0.112275"><ele>9.0</ele><time>2026-04-15T09:16:49.077Z</time></trkpt><trkpt lat="51.4779167" lon="-0.1122617"><ele>9.0</ele><time>2026-04-15T09:16:50.077Z</time></trkpt><trkpt lat="51.47799" lon="-0.1122483"><ele>9.0</ele><time>2026-04-15T09:16:51.075Z</time></trkpt><trkpt lat="51.478065" lon="-0.1122317"><ele>9.0</ele><time>2026-04-15T09:16:52.078Z</time></trkpt><trkpt lat="51.4781433" lon="-0.1122133"><ele>8.666666666666666</ele><time>2026-04-15T09:16:53.075Z</time></trkpt><trkpt lat="51.4782233" lon="-0.112195"><ele>8.333333333333334</ele><time>2026-04-15T09:16:54.078Z</time></trkpt><trkpt lat="51.4783067" lon="-0.11218"><ele>8.0</ele><time>2026-04-15T09:16:55.076Z</time></trkpt><trkpt lat="51.4783917" lon="-0.1121583"><ele>7.666666666666667</ele><time>2026-04-15T09:16:56.075Z</time></trkpt><trkpt lat="51.47848" lon="-0.1121367"><ele>7.333333333333334</ele><time>2026-04-15T09:16:57.075Z</time></trkpt><trkpt lat="51.4785667" lon="-0.1121067"><ele>7.0</ele><time>2026-04-15T09:16:58.079Z</time></trkpt><trkpt lat="51.47865" lon="-0.11207"><ele>7.000000000000001</ele><time>2026-04-15T09:16:59.077Z</time></trkpt><trkpt lat="51.4787317" lon="-0.1120383"><ele>7.0</ele><time>2026-04-15T09:17:00.076Z</time></trkpt><trkpt lat="51.4788133" lon="-0.112"><ele>7.0</ele><time>2026-04-15T09:17:01.077Z</time></trkpt><trkpt lat="51.4788933" lon="-0.1119717"><ele>7.0</ele><time>2026-04-15T09:17:02.076Z</time></trkpt><trkpt lat="51.47897" lon="-0.11194"><ele>7.000000000000001</ele><time>2026-04-15T09:17:03.075Z</time></trkpt><trkpt lat="51.4790467" lon="-0.1119133"><ele>7.0</ele><time>2026-04-15T09:17:04.076Z</time></trkpt><trkpt lat="51.4791267" lon="-0.11189"><ele>7.333333333333334</ele><time>2026-04-15T09:17:05.076Z</time></trkpt><trkpt lat="51.4792067" lon="-0.11186"><ele>7.666666666666667</ele><time>2026-04-15T09:17:06.078Z</time></trkpt><trkpt lat="51.4792783" lon="-0.111825"><ele>8.0</ele><time>2026-04-15T09:17:07.076Z</time></trkpt><trkpt lat="51.4793583" lon="-0.1117933"><ele>8.333333333333334</ele><time>2026-04-15T09:17:08.081Z</time></trkpt><trkpt lat="51.47944" lon="-0.11176"><ele>8.666666666666666</ele><time>2026-04-15T09:17:09.081Z</time></trkpt><trkpt lat="51.4795233" lon="-0.1117133"><ele>9.0</ele><time>2026-04-15T09:17:10.076Z</time></trkpt><trkpt lat="51.4796067" lon="-0.111655"><ele>9.166666666666666</ele><time>2026-04-15T09:17:11.076Z</time></trkpt><trkpt lat="51.47969" lon="-0.1116017"><ele>9.333333333333334</ele><time>2026-04-15T09:17:12.076Z</time></trkpt><trkpt lat="51.47977" lon="-0.1115567"><ele>9.5</ele><time>2026-04-15T09:17:13.081Z</time></trkpt><trkpt lat="51.479845" lon="-0.1115117"><ele>9.666666666666668</ele><time>2026-04-15T09:17:14.078Z</time></trkpt><trkpt lat="51.4799217" lon="-0.111465"><ele>9.833333333333334</ele><time>2026-04-15T09:17:15.078Z</time></trkpt><trkpt lat="51.4800033" lon="-0.1114167"><ele>10.0</ele><time>2026-04-15T09:17:16.076Z</time></trkpt><trkpt lat="51.4800883" lon="-0.1113583"><ele>10.0</ele><time>2026-04-15T09:17:17.08Z</time></trkpt><trkpt lat="51.4801733" lon="-0.1113017"><ele>10.0</ele><time>2026-04-15T09:17:18.077Z</time></trkpt><trkpt lat="51.480255" lon="-0.1112483"><ele>10.0</ele><time>2026-04-15T09:17:19.077Z</time></trkpt><trkpt lat="51.48033" lon="-0.1112067"><ele>10.0</ele><time>2026-04-15T09:17:20.079Z</time></trkpt><trkpt lat="51.4804017" lon="-0.111175"><ele>10.0</ele><time>2026-04-15T09:17:21.078Z</time></trkpt><trkpt lat="51.480465" lon="-0.1111417"><ele>10.0</ele><time>2026-04-15T09:17:22.077Z</time></trkpt><trkpt lat="51.48053" lon="-0.1111083"><ele>9.8</ele><time>2026-04-15T09:17:23.076Z</time></trkpt><trkpt lat="51.4806367" lon="-0.1110433"><ele>9.6</ele><time>2026-04-15T09:17:25.083Z</time></trkpt><trkpt lat="51.4807267" lon="-0.1109833"><ele>9.4</ele><time>2026-04-15T09:17:27.078Z</time></trkpt><trkpt lat="51.4808" lon="-0.1109417"><ele>9.2</ele><time>2026-04-15T09:17:29.081Z</time></trkpt><trkpt lat="51.4808667" lon="-0.110905"><ele>9.0</ele><time>2026-04-15T09:17:31.079Z</time></trkpt><trkpt lat="51.4809617" lon="-0.1108617"><ele>9.0</ele><time>2026-04-15T09:17:33.078Z</time></trkpt><trkpt lat="51.4810383" lon="-0.1108417"><ele>9.0</ele><time>2026-04-15T09:17:35.082Z</time></trkpt><trkpt lat="51.48112" lon="-0.11081"><ele>9.0</ele><time>2026-04-15T09:17:37.082Z</time></trkpt><trkpt lat="51.4812217" lon="-0.1107967"><ele>9.0</ele><time>2026-04-15T09:17:39.079Z</time></trkpt><trkpt lat="51.4813367" lon="-0.1108617"><ele>9.0</ele><time>2026-04-15T09:17:41.081Z</time></trkpt><trkpt lat="51.4813917" lon="-0.11092"><ele>8.857142857142858</ele><time>2026-04-15T09:17:42.08Z</time></trkpt><trkpt lat="51.4814467" lon="-0.1109867"><ele>8.714285714285715</ele><time>2026-04-15T09:17:43.077Z</time></trkpt><trkpt lat="51.481505" lon="-0.1110517"><ele>8.571428571428571</ele><time>2026-04-15T09:17:44.077Z</time></trkpt><trkpt lat="51.4815683" lon="-0.11111"><ele>8.428571428571429</ele><time>2026-04-15T09:17:45.075Z</time></trkpt><trkpt lat="51.481635" lon="-0.1111717"><ele>8.285714285714285</ele><time>2026-04-15T09:17:46.076Z</time></trkpt><trkpt lat="51.481705" lon="-0.1112317"><ele>8.142857142857142</ele><time>2026-04-15T09:17:47.077Z</time></trkpt><trkpt lat="51.4817783" lon="-0.1112833"><ele>8.0</ele><time>2026-04-15T09:17:48.076Z</time></trkpt><trkpt lat="51.4818583" lon="-0.1113283"><ele>7.999999999999999</ele><time>2026-04-15T09:17:49.079Z</time></trkpt><trkpt lat="51.4819433" lon="-0.1113767"><ele>8.0</ele><time>2026-04-15T09:17:50.076Z</time></trkpt><trkpt lat="51.4820267" lon="-0.1114133"><ele>8.0</ele><time>2026-04-15T09:17:51.077Z</time></trkpt><trkpt lat="51.48211" lon="-0.1114417"><ele>8.0</ele><time>2026-04-15T09:17:52.076Z</time></trkpt><trkpt lat="51.4821983" lon="-0.1114783"><ele>7.999999999999999</ele><time>2026-04-15T09:17:53.076Z</time></trkpt><trkpt lat="51.4822917" lon="-0.1114983"><ele>8.0</ele><time>2026-04-15T09:17:54.075Z</time></trkpt><trkpt lat="51.482375" lon="-0.111515"><ele>8.333333333333332</ele><time>2026-04-15T09:17:55.077Z</time></trkpt><trkpt lat="51.4824517" lon="-0.1115267"><ele>8.666666666666666</ele><time>2026-04-15T09:17:56.077Z</time></trkpt><trkpt lat="51.48253" lon="-0.111545"><ele>9.0</ele><time>2026-04-15T09:17:57.08Z</time></trkpt><trkpt lat="51.4826083" lon="-0.1115767"><ele>9.333333333333334</ele><time>2026-04-15T09:17:58.081Z</time></trkpt><trkpt lat="51.482685" lon="-0.1115967"><ele>9.666666666666668</ele><time>2026-04-15T09:17:59.077Z</time></trkpt><trkpt lat="51.4827567" lon="-0.1116133"><ele>10.0</ele><time>2026-04-15T09:18:00.077Z</time></trkpt><trkpt lat="51.4828367" lon="-0.1116083"><ele>10.0</ele><time>2026-04-15T09:18:01.076Z</time></trkpt><trkpt lat="51.4829133" lon="-0.1115833"><ele>10.0</ele><time>2026-04-15T09:18:02.076Z</time></trkpt><trkpt lat="51.48299" lon="-0.1115233"><ele>10.0</ele><time>2026-04-15T09:18:03.077Z</time></trkpt><trkpt lat="51.4830633" lon="-0.1114533"><ele>10.0</ele><time>2026-04-15T09:18:04.078Z</time></trkpt><trkpt lat="51.4831317" lon="-0.1113617"><ele>10.0</ele><time>2026-04-15T09:18:05.078Z</time></trkpt><trkpt lat="51.4832" lon="-0.11128"><ele>10.0</ele><time>2026-04-15T09:18:06.08Z</time></trkpt><trkpt lat="51.4832683" lon="-0.11121"><ele>10.0</ele><time>2026-04-15T09:18:07.077Z</time></trkpt><trkpt lat="51.4833367" lon="-0.1111417"><ele>10.0</ele><time>2026-04-15T09:18:08.076Z</time></trkpt><trkpt lat="51.483405" lon="-0.1110733"><ele>10.0</ele><time>2026-04-15T09:18:09.077Z</time></trkpt><trkpt lat="51.483475" lon="-0.1109967"><ele>10.0</ele><time>2026-04-15T09:18:10.077Z</time></trkpt><trkpt lat="51.4835467" lon="-0.110915"><ele>10.0</ele><time>2026-04-15T09:18:11.077Z</time></trkpt><trkpt lat="51.4836133" lon="-0.1108383"><ele>10.0</ele><time>2026-04-15T09:18:12.08Z</time></trkpt><trkpt lat="51.4836817" lon="-0.1107583"><ele>10.0</ele><time>2026-04-15T09:18:13.081Z</time></trkpt><trkpt lat="51.4837517" lon="-0.11069"><ele>10.0</ele><time>2026-04-15T09:18:14.076Z</time></trkpt><trkpt lat="51.4838217" lon="-0.11062"><ele>10.0</ele><time>2026-04-15T09:18:15.075Z</time></trkpt><trkpt lat="51.4838883" lon="-0.1105533"><ele>10.0</ele><time>2026-04-15T09:18:16.076Z</time></trkpt><trkpt lat="51.483955" lon="-0.1104917"><ele>10.0</ele><time>2026-04-15T09:18:17.076Z</time></trkpt><trkpt lat="51.4840217" lon="-0.110425"><ele>10.0</ele><time>2026-04-15T09:18:18.076Z</time></trkpt><trkpt lat="51.484085" lon="-0.1103583"><ele>9.666666666666668</ele><time>2026-04-15T09:18:19.077Z</time></trkpt><trkpt lat="51.484145" lon="-0.1102917"><ele>9.333333333333334</ele><time>2026-04-15T09:18:20.076Z</time></trkpt><trkpt lat="51.4842017" lon="-0.11023"><ele>9.0</ele><time>2026-04-15T09:18:21.076Z</time></trkpt><trkpt lat="51.4842867" lon="-0.1101533"><ele>8.666666666666666</ele><time>2026-04-15T09:18:23.076Z</time></trkpt><trkpt lat="51.4843517" lon="-0.1100983"><ele>8.333333333333332</ele><time>2026-04-15T09:18:25.077Z</time></trkpt><trkpt lat="51.4844233" lon="-0.11006"><ele>8.0</ele><time>2026-04-15T09:18:27.08Z</time></trkpt><trkpt lat="51.48453" lon="-0.1100733"><ele>7.999999999999999</ele><time>2026-04-15T09:18:29.076Z</time></trkpt><trkpt lat="51.4845883" lon="-0.110125"><ele>8.0</ele><time>2026-04-15T09:18:30.076Z</time></trkpt><trkpt lat="51.4846467" lon="-0.11019"><ele>8.0</ele><time>2026-04-15T09:18:31.076Z</time></trkpt><trkpt lat="51.4847017" lon="-0.1102733"><ele>8.0</ele><time>2026-04-15T09:18:32.076Z</time></trkpt><trkpt lat="51.4847533" lon="-0.11036"><ele>7.999999999999999</ele><time>2026-04-15T09:18:33.076Z</time></trkpt><trkpt lat="51.4848033" lon="-0.110435"><ele>8.0</ele><time>2026-04-15T09:18:34.076Z</time></trkpt><trkpt lat="51.4848967" lon="-0.1105567"><ele>8.0</ele><time>2026-04-15T09:18:36.076Z</time></trkpt><trkpt lat="51.484995" lon="-0.11067"><ele>8.0</ele><time>2026-04-15T09:18:38.077Z</time></trkpt><trkpt lat="51.485095" lon="-0.1108033"><ele>8.0</ele><time>2026-04-15T09:18:40.076Z</time></trkpt><trkpt lat="51.4851517" lon="-0.11087"><ele>8.0</ele><time>2026-04-15T09:18:41.077Z</time></trkpt><trkpt lat="51.4852083" lon="-0.11094"><ele>8.0</ele><time>2026-04-15T09:18:42.076Z</time></trkpt><trkpt lat="51.4852717" lon="-0.11101"><ele>7.999999999999999</ele><time>2026-04-15T09:18:43.076Z</time></trkpt><trkpt lat="51.4853367" lon="-0.1110783"><ele>8.0</ele><time>2026-04-15T09:18:44.08Z</time></trkpt><trkpt lat="51.485405" lon="-0.111145"><ele>8.0</ele><time>2026-04-15T09:18:45.076Z</time></trkpt><trkpt lat="51.4854783" lon="-0.1112067"><ele>8.0</ele><time>2026-04-15T09:18:46.077Z</time></trkpt><trkpt lat="51.485555" lon="-0.11126"><ele>7.999999999999999</ele><time>2026-04-15T09:18:47.076Z</time></trkpt><trkpt lat="51.4856283" lon="-0.1112983"><ele>8.0</ele><time>2026-04-15T09:18:48.076Z</time></trkpt><trkpt lat="51.485705" lon="-0.1113317"><ele>7.999999999999999</ele><time>2026-04-15T09:18:49.077Z</time></trkpt><trkpt lat="51.4857817" lon="-0.111355"><ele>8.0</ele><time>2026-04-15T09:18:50.077Z</time></trkpt><trkpt lat="51.4858633" lon="-0.111365"><ele>8.0</ele><time>2026-04-15T09:18:51.076Z</time></trkpt><trkpt lat="51.4859467" lon="-0.1113767"><ele>8.0</ele><time>2026-04-15T09:18:52.076Z</time></trkpt><trkpt lat="51.48603" lon="-0.1113833"><ele>7.999999999999999</ele><time>2026-04-15T09:18:53.076Z</time></trkpt><trkpt lat="51.4861133" lon="-0.1113883"><ele>8.0</ele><time>2026-04-15T09:18:54.077Z</time></trkpt><trkpt lat="51.4861933" lon="-0.11139"><ele>7.666666666666666</ele><time>2026-04-15T09:18:55.077Z</time></trkpt><trkpt lat="51.4862683" lon="-0.111395"><ele>7.333333333333333</ele><time>2026-04-15T09:18:56.076Z</time></trkpt><trkpt lat="51.48635" lon="-0.1113867"><ele>7.0</ele><time>2026-04-15T09:18:57.076Z</time></trkpt><trkpt lat="51.4864283" lon="-0.1113883"><ele>6.666666666666666</ele><time>2026-04-15T09:18:58.076Z</time></trkpt><trkpt lat="51.48651" lon="-0.1113983"><ele>6.333333333333333</ele><time>2026-04-15T09:18:59.078Z</time></trkpt><trkpt lat="51.48658" lon="-0.1113967"><ele>6.0</ele><time>2026-04-15T09:19:00.076Z</time></trkpt><trkpt lat="51.4866883" lon="-0.1114267"><ele>6.0</ele><time>2026-04-15T09:19:02.076Z</time></trkpt><trkpt lat="51.486765" lon="-0.1114483"><ele>6.0</ele><time>2026-04-15T09:19:04.077Z</time></trkpt><trkpt lat="51.4868433" lon="-0.111455"><ele>6.0</ele><time>2026-04-15T09:19:14.075Z</time></trkpt><trkpt lat="51.4869483" lon="-0.1114683"><ele>6.0</ele><time>2026-04-15T09:19:16.077Z</time></trkpt><trkpt lat="51.48703" lon="-0.1114483"><ele>6.0</ele><time>2026-04-15T09:19:17.08Z</time></trkpt><trkpt lat="51.487115" lon="-0.1114317"><ele>6.0</ele><time>2026-04-15T09:19:18.075Z</time></trkpt><trkpt lat="51.487195" lon="-0.1114233"><ele>6.333333333333333</ele><time>2026-04-15T09:19:19.079Z</time></trkpt><trkpt lat="51.487275" lon="-0.1114117"><ele>6.666666666666666</ele><time>2026-04-15T09:19:20.077Z</time></trkpt><trkpt lat="51.4873567" lon="-0.1114033"><ele>7.0</ele><time>2026-04-15T09:19:21.076Z</time></trkpt><trkpt lat="51.4874367" lon="-0.1113983"><ele>7.333333333333333</ele><time>2026-04-15T09:19:22.076Z</time></trkpt><trkpt lat="51.4875183" lon="-0.1113883"><ele>7.666666666666666</ele><time>2026-04-15T09:19:23.076Z</time></trkpt><trkpt lat="51.4876017" lon="-0.1113733"><ele>8.0</ele><time>2026-04-15T09:19:24.077Z</time></trkpt><trkpt lat="51.48767" lon="-0.1113717"><ele>8.0</ele><time>2026-04-15T09:19:25.077Z</time></trkpt><trkpt lat="51.4877333" lon="-0.11137"><ele>8.0</ele><time>2026-04-15T09:19:26.075Z</time></trkpt><trkpt lat="51.4878333" lon="-0.111355"><ele>8.0</ele><time>2026-04-15T09:19:28.076Z</time></trkpt><trkpt lat="51.4879317" lon="-0.111335"><ele>8.0</ele><time>2026-04-15T09:19:30.077Z</time></trkpt><trkpt lat="51.4880533" lon="-0.111315"><ele>8.0</ele><time>2026-04-15T09:19:32.077Z</time></trkpt><trkpt lat="51.4881233" lon="-0.111315"><ele>7.833333333333333</ele><time>2026-04-15T09:19:33.076Z</time></trkpt><trkpt lat="51.4882" lon="-0.11131"><ele>7.666666666666666</ele><time>2026-04-15T09:19:34.076Z</time></trkpt><trkpt lat="51.488275" lon="-0.1113083"><ele>7.5</ele><time>2026-04-15T09:19:35.076Z</time></trkpt><trkpt lat="51.48836" lon="-0.1113017"><ele>7.333333333333334</ele><time>2026-04-15T09:19:36.075Z</time></trkpt><trkpt lat="51.4884383" lon="-0.1112917"><ele>7.166666666666667</ele><time>2026-04-15T09:19:37.079Z</time></trkpt><trkpt lat="51.4885167" lon="-0.111285"><ele>7.0</ele><time>2026-04-15T09:19:38.077Z</time></trkpt><trkpt lat="51.4885933" lon="-0.1112767"><ele>7.000000000000001</ele><time>2026-04-15T09:19:39.076Z</time></trkpt><trkpt lat="51.488675" lon="-0.11127"><ele>7.0</ele><time>2026-04-15T09:19:40.08Z</time></trkpt><trkpt lat="51.488755" lon="-0.1112667"><ele>7.0</ele><time>2026-04-15T09:19:41.075Z</time></trkpt><trkpt lat="51.4888383" lon="-0.1112633"><ele>7.0</ele><time>2026-04-15T09:19:42.076Z</time></trkpt><trkpt lat="51.488915" lon="-0.11126"><ele>7.000000000000001</ele><time>2026-04-15T09:19:43.077Z</time></trkpt><trkpt lat="51.4889867" lon="-0.11126"><ele>7.0</ele><time>2026-04-15T09:19:44.076Z</time></trkpt><trkpt lat="51.4890517" lon="-0.1112633"><ele>7.0</ele><time>2026-04-15T09:19:45.077Z</time></trkpt><trkpt lat="51.4891617" lon="-0.1112633"><ele>6.999999999999999</ele><time>2026-04-15T09:19:47.077Z</time></trkpt><trkpt lat="51.48926" lon="-0.1112383"><ele>6.999999999999999</ele><time>2026-04-15T09:19:49.077Z</time></trkpt><trkpt lat="51.4893467" lon="-0.11128"><ele>7.0</ele><time>2026-04-15T09:19:52.08Z</time></trkpt><trkpt lat="51.4893883" lon="-0.11137"><ele>7.0</ele><time>2026-04-15T09:19:54.077Z</time></trkpt><trkpt lat="51.489425" lon="-0.1115067"><ele>7.3999999999999995</ele><time>2026-04-15T09:19:56.075Z</time></trkpt><trkpt lat="51.489455" lon="-0.1116467"><ele>7.799999999999999</ele><time>2026-04-15T09:19:58.077Z</time></trkpt><trkpt lat="51.4894983" lon="-0.11183"><ele>8.2</ele><time>2026-04-15T09:20:00.079Z</time></trkpt><trkpt lat="51.4895167" lon="-0.1120117"><ele>8.6</ele><time>2026-04-15T09:20:02.077Z</time></trkpt><trkpt lat="51.48953" lon="-0.1121817"><ele>9.0</ele><time>2026-04-15T09:20:04.077Z</time></trkpt><trkpt lat="51.489535" lon="-0.1123467"><ele>9.4</ele><time>2026-04-15T09:20:06.076Z</time></trkpt><trkpt lat="51.4895367" lon="-0.1125433"><ele>9.8</ele><time>2026-04-15T09:20:08.077Z</time></trkpt><trkpt lat="51.4895367" lon="-0.1126467"><ele>10.200000000000001</ele><time>2026-04-15T09:20:09.081Z</time></trkpt><trkpt lat="51.4895417" lon="-0.11283"><ele>10.600000000000001</ele><time>2026-04-15T09:20:11.08Z</time></trkpt><trkpt lat="51.48956" lon="-0.11303"><ele>11.0</ele><time>2026-04-15T09:20:13.077Z</time></trkpt><trkpt lat="51.4895733" lon="-0.113135"><ele>11.0</ele><time>2026-04-15T09:20:14.076Z</time></trkpt><trkpt lat="51.4895917" lon="-0.1132317"><ele>11.0</ele><time>2026-04-15T09:20:15.08Z</time></trkpt><trkpt lat="51.4896317" lon="-0.1134067"><ele>11.0</ele><time>2026-04-15T09:20:17.076Z</time></trkpt><trkpt lat="51.4896717" lon="-0.11357"><ele>11.0</ele><time>2026-04-15T09:20:19.076Z</time></trkpt><trkpt lat="51.4897333" lon="-0.1137267"><ele>11.0</ele><time>2026-04-15T09:20:21.077Z</time></trkpt><trkpt lat="51.4897817" lon="-0.1138567"><ele>10.714285714285715</ele><time>2026-04-15T09:20:23.076Z</time></trkpt><trkpt lat="51.4898467" lon="-0.1140217"><ele>10.428571428571429</ele><time>2026-04-15T09:20:25.076Z</time></trkpt><trkpt lat="51.4898783" lon="-0.11411"><ele>10.142857142857142</ele><time>2026-04-15T09:20:26.076Z</time></trkpt><trkpt lat="51.4899133" lon="-0.114195"><ele>9.857142857142858</ele><time>2026-04-15T09:20:27.077Z</time></trkpt><trkpt lat="51.4899483" lon="-0.1142833"><ele>9.571428571428571</ele><time>2026-04-15T09:20:28.077Z</time></trkpt><trkpt lat="51.4899783" lon="-0.114375"><ele>9.285714285714286</ele><time>2026-04-15T09:20:29.078Z</time></trkpt><trkpt lat="51.4900083" lon="-0.1144733"><ele>9.0</ele><time>2026-04-15T09:20:30.076Z</time></trkpt><trkpt lat="51.490045" lon="-0.11458"><ele>8.666666666666666</ele><time>2026-04-15T09:20:31.077Z</time></trkpt><trkpt lat="51.49008" lon="-0.1146883"><ele>8.333333333333334</ele><time>2026-04-15T09:20:32.076Z</time></trkpt><trkpt lat="51.49012" lon="-0.114795"><ele>8.0</ele><time>2026-04-15T09:20:33.077Z</time></trkpt><trkpt lat="51.49016" lon="-0.1149033"><ele>7.666666666666667</ele><time>2026-04-15T09:20:34.077Z</time></trkpt><trkpt lat="51.4902" lon="-0.11502"><ele>7.333333333333334</ele><time>2026-04-15T09:20:35.076Z</time></trkpt><trkpt lat="51.4902433" lon="-0.1151367"><ele>7.0</ele><time>2026-04-15T09:20:36.075Z</time></trkpt><trkpt lat="51.4902867" lon="-0.1152467"><ele>7.000000000000001</ele><time>2026-04-15T09:20:37.076Z</time></trkpt><trkpt lat="51.4903267" lon="-0.1153533"><ele>7.0</ele><time>2026-04-15T09:20:38.075Z</time></trkpt><trkpt lat="51.4903633" lon="-0.115465"><ele>7.0</ele><time>2026-04-15T09:20:39.076Z</time></trkpt><trkpt lat="51.4904033" lon="-0.1155733"><ele>7.0</ele><time>2026-04-15T09:20:40.077Z</time></trkpt><trkpt lat="51.49045" lon="-0.115675"><ele>7.000000000000001</ele><time>2026-04-15T09:20:41.077Z</time></trkpt><trkpt lat="51.4905" lon="-0.1158"><ele>7.0</ele><time>2026-04-15T09:20:42.078Z</time></trkpt><trkpt lat="51.49055" lon="-0.1159367"><ele>7.000000000000001</ele><time>2026-04-15T09:20:43.078Z</time></trkpt><trkpt lat="51.4906033" lon="-0.1160633"><ele>7.0</ele><time>2026-04-15T09:20:44.076Z</time></trkpt><trkpt lat="51.4906583" lon="-0.116185"><ele>7.0</ele><time>2026-04-15T09:20:45.077Z</time></trkpt><trkpt lat="51.4907067" lon="-0.1163017"><ele>7.0</ele><time>2026-04-15T09:20:46.077Z</time></trkpt><trkpt lat="51.4907583" lon="-0.1164033"><ele>7.000000000000001</ele><time>2026-04-15T09:20:47.076Z</time></trkpt><trkpt lat="51.4908033" lon="-0.11651"><ele>7.0</ele><time>2026-04-15T09:20:48.077Z</time></trkpt><trkpt lat="51.4908483" lon="-0.1166217"><ele>7.000000000000001</ele><time>2026-04-15T09:20:49.077Z</time></trkpt><trkpt lat="51.4908917" lon="-0.1167317"><ele>7.0</ele><time>2026-04-15T09:20:50.077Z</time></trkpt><trkpt lat="51.4909383" lon="-0.1168383"><ele>7.0</ele><time>2026-04-15T09:20:51.075Z</time></trkpt><trkpt lat="51.4909917" lon="-0.1169467"><ele>7.0</ele><time>2026-04-15T09:20:52.075Z</time></trkpt><trkpt lat="51.49104" lon="-0.1170633"><ele>7.000000000000001</ele><time>2026-04-15T09:20:53.076Z</time></trkpt><trkpt lat="51.4910867" lon="-0.1171817"><ele>7.0</ele><time>2026-04-15T09:20:54.076Z</time></trkpt><trkpt lat="51.491135" lon="-0.1172917"><ele>7.000000000000001</ele><time>2026-04-15T09:20:55.079Z</time></trkpt><trkpt lat="51.4911833" lon="-0.1173983"><ele>7.0</ele><time>2026-04-15T09:20:56.076Z</time></trkpt><trkpt lat="51.4912283" lon="-0.1175083"><ele>7.0</ele><time>2026-04-15T09:20:57.076Z</time></trkpt><trkpt lat="51.491275" lon="-0.1176083"><ele>7.0</ele><time>2026-04-15T09:20:58.076Z</time></trkpt><trkpt lat="51.491325" lon="-0.117705"><ele>7.000000000000001</ele><time>2026-04-15T09:20:59.075Z</time></trkpt><trkpt lat="51.4913717" lon="-0.1178067"><ele>7.0</ele><time>2026-04-15T09:21:00.077Z</time></trkpt><trkpt lat="51.4914183" lon="-0.1179"><ele>6.8</ele><time>2026-04-15T09:21:01.076Z</time></trkpt><trkpt lat="51.49146" lon="-0.1179783"><ele>6.6</ele><time>2026-04-15T09:21:02.075Z</time></trkpt><trkpt lat="51.4915333" lon="-0.1181267"><ele>6.3999999999999995</ele><time>2026-04-15T09:21:04.075Z</time></trkpt><trkpt lat="51.4915917" lon="-0.11825"><ele>6.199999999999999</ele><time>2026-04-15T09:21:06.075Z</time></trkpt><trkpt lat="51.4916467" lon="-0.11837"><ele>6.0</ele><time>2026-04-15T09:21:08.078Z</time></trkpt><trkpt lat="51.491695" lon="-0.1185033"><ele>6.8</ele><time>2026-04-15T09:21:10.075Z</time></trkpt><trkpt lat="51.4917417" lon="-0.1186433"><ele>7.6</ele><time>2026-04-15T09:21:12.076Z</time></trkpt><trkpt lat="51.4917767" lon="-0.1187717"><ele>8.4</ele><time>2026-04-15T09:21:14.076Z</time></trkpt><trkpt lat="51.4918067" lon="-0.118895"><ele>9.2</ele><time>2026-04-15T09:21:16.077Z</time></trkpt><trkpt lat="51.4918567" lon="-0.119045"><ele>10.0</ele><time>2026-04-15T09:21:18.075Z</time></trkpt><trkpt lat="51.4919133" lon="-0.1192167"><ele>10.0</ele><time>2026-04-15T09:21:20.075Z</time></trkpt><trkpt lat="51.4919433" lon="-0.1193133"><ele>10.0</ele><time>2026-04-15T09:21:21.075Z</time></trkpt><trkpt lat="51.4919667" lon="-0.1194183"><ele>10.0</ele><time>2026-04-15T09:21:22.076Z</time></trkpt><trkpt lat="51.49199" lon="-0.1195317"><ele>10.0</ele><time>2026-04-15T09:21:23.077Z</time></trkpt><trkpt lat="51.4920267" lon="-0.1196617"><ele>10.0</ele><time>2026-04-15T09:21:24.077Z</time></trkpt><trkpt lat="51.4920533" lon="-0.11979"><ele>10.0</ele><time>2026-04-15T09:21:25.076Z</time></trkpt><trkpt lat="51.4921017" lon="-0.1199083"><ele>9.833333333333334</ele><time>2026-04-15T09:21:26.076Z</time></trkpt><trkpt lat="51.49214" lon="-0.119995"><ele>9.666666666666668</ele><time>2026-04-15T09:21:27.077Z</time></trkpt><trkpt lat="51.492195" lon="-0.12015"><ele>9.5</ele><time>2026-04-15T09:21:29.075Z</time></trkpt><trkpt lat="51.4921933" lon="-0.12026"><ele>9.333333333333334</ele><time>2026-04-15T09:21:31.076Z</time></trkpt><trkpt lat="51.49222" lon="-0.120395"><ele>9.166666666666666</ele><time>2026-04-15T09:21:33.077Z</time></trkpt><trkpt lat="51.49226" lon="-0.1205333"><ele>9.0</ele><time>2026-04-15T09:21:35.075Z</time></trkpt><trkpt lat="51.4922967" lon="-0.12068"><ele>9.6</ele><time>2026-04-15T09:21:37.075Z</time></trkpt><trkpt lat="51.49235" lon="-0.12091"><ele>10.2</ele><time>2026-04-15T09:21:39.08Z</time></trkpt><trkpt lat="51.4923767" lon="-0.1210233"><ele>10.799999999999999</ele><time>2026-04-15T09:21:40.075Z</time></trkpt><trkpt lat="51.4923633" lon="-0.121125"><ele>11.4</ele><time>2026-04-15T09:21:41.079Z</time></trkpt><trkpt lat="51.4923733" lon="-0.1212667"><ele>12.0</ele><time>2026-04-15T09:21:43.076Z</time></trkpt><trkpt lat="51.49238" lon="-0.121385"><ele>12.0</ele><time>2026-04-15T09:21:45.075Z</time></trkpt><trkpt lat="51.4923783" lon="-0.1215033"><ele>12.0</ele><time>2026-04-15T09:21:48.075Z</time></trkpt><trkpt lat="51.4923633" lon="-0.12128"><ele>12.0</ele><time>2026-04-15T09:22:19.102Z</time></trkpt><trkpt lat="51.49241" lon="-0.12142"><ele>12.0</ele><time>2026-04-15T09:22:30.075Z</time></trkpt><trkpt lat="51.4924717" lon="-0.12153"><ele>12.0</ele><time>2026-04-15T09:22:32.075Z</time></trkpt><trkpt lat="51.4925933" lon="-0.12159"><ele>12.0</ele><time>2026-04-15T09:22:34.076Z</time></trkpt><trkpt lat="51.4926817" lon="-0.1215933"><ele>12.0</ele><time>2026-04-15T09:22:35.076Z</time></trkpt><trkpt lat="51.4927733" lon="-0.1215733"><ele>12.0</ele><time>2026-04-15T09:22:36.075Z</time></trkpt><trkpt lat="51.492865" lon="-0.1215467"><ele>12.0</ele><time>2026-04-15T09:22:37.075Z</time></trkpt><trkpt lat="51.4929583" lon="-0.1215183"><ele>12.0</ele><time>2026-04-15T09:22:38.076Z</time></trkpt><trkpt lat="51.4930467" lon="-0.1214867"><ele>13.0</ele><time>2026-04-15T09:22:39.075Z</time></trkpt><trkpt lat="51.493125" lon="-0.1214583"><ele>14.0</ele><time>2026-04-15T09:22:40.078Z</time></trkpt><trkpt lat="51.4931983" lon="-0.1214267"><ele>15.0</ele><time>2026-04-15T09:22:41.077Z</time></trkpt><trkpt lat="51.49327" lon="-0.1214"><ele>16.0</ele><time>2026-04-15T09:22:42.076Z</time></trkpt><trkpt lat="51.4933417" lon="-0.121375"><ele>17.0</ele><time>2026-04-15T09:22:43.082Z</time></trkpt><trkpt lat="51.49341" lon="-0.121355"><ele>18.0</ele><time>2026-04-15T09:22:44.075Z</time></trkpt><trkpt lat="51.4934833" lon="-0.1213217"><ele>19.0</ele><time>2026-04-15T09:22:45.076Z</time></trkpt><trkpt lat="51.4935583" lon="-0.121295"><ele>19.0</ele><time>2026-04-15T09:22:46.075Z</time></trkpt><trkpt lat="51.4936367" lon="-0.1212717"><ele>19.0</ele><time>2026-04-15T09:22:47.077Z</time></trkpt><trkpt lat="51.493715" lon="-0.121245"><ele>19.0</ele><time>2026-04-15T09:22:48.077Z</time></trkpt><trkpt lat="51.49379" lon="-0.1212167"><ele>19.0</ele><time>2026-04-15T09:22:49.075Z</time></trkpt><trkpt lat="51.4938617" lon="-0.1211817"><ele>19.0</ele><time>2026-04-15T09:22:50.076Z</time></trkpt><trkpt lat="51.4939583" lon="-0.121125"><ele>19.0</ele><time>2026-04-15T09:22:52.075Z</time></trkpt><trkpt lat="51.49403" lon="-0.1211383"><ele>17.5</ele><time>2026-04-15T09:24:04.076Z</time></trkpt><trkpt lat="51.4941083" lon="-0.1211067"><ele>16.0</ele><time>2026-04-15T09:24:06.076Z</time></trkpt><trkpt lat="51.49419" lon="-0.12109"><ele>14.5</ele><time>2026-04-15T09:24:08.076Z</time></trkpt><trkpt lat="51.4942483" lon="-0.1211533"><ele>13.0</ele><time>2026-04-15T09:24:10.075Z</time></trkpt><trkpt lat="51.4943033" lon="-0.1213367"><ele>11.5</ele><time>2026-04-15T09:24:12.078Z</time></trkpt><trkpt lat="51.494315" lon="-0.121455"><ele>10.0</ele><time>2026-04-15T09:24:13.076Z</time></trkpt><trkpt lat="51.4943267" lon="-0.1215767"><ele>9.0</ele><time>2026-04-15T09:24:14.08Z</time></trkpt><trkpt lat="51.4943417" lon="-0.1216967"><ele>8.0</ele><time>2026-04-15T09:24:15.077Z</time></trkpt><trkpt lat="51.4943583" lon="-0.1218167"><ele>7.0</ele><time>2026-04-15T09:24:16.078Z</time></trkpt><trkpt lat="51.4943783" lon="-0.1219383"><ele>6.0</ele><time>2026-04-15T09:24:17.077Z</time></trkpt><trkpt lat="51.4944017" lon="-0.122075"><ele>5.0</ele><time>2026-04-15T09:24:18.079Z</time></trkpt><trkpt lat="51.4944317" lon="-0.1222267"><ele>4.0</ele><time>2026-04-15T09:24:19.078Z</time></trkpt><trkpt lat="51.494455" lon="-0.122375"><ele>3.833333333333333</ele><time>2026-04-15T09:24:20.075Z</time></trkpt><trkpt lat="51.4944733" lon="-0.1225217"><ele>3.6666666666666665</ele><time>2026-04-15T09:24:21.075Z</time></trkpt><trkpt lat="51.4944867" lon="-0.122655"><ele>3.5</ele><time>2026-04-15T09:24:22.075Z</time></trkpt><trkpt lat="51.4945" lon="-0.12278"><ele>3.333333333333333</ele><time>2026-04-15T09:24:23.081Z</time></trkpt><trkpt lat="51.4945133" lon="-0.1229033"><ele>3.1666666666666665</ele><time>2026-04-15T09:24:24.077Z</time></trkpt><trkpt lat="51.4945267" lon="-0.1230267"><ele>3.0</ele><time>2026-04-15T09:24:25.077Z</time></trkpt><trkpt lat="51.4945417" lon="-0.1231583"><ele>3.0</ele><time>2026-04-15T09:24:26.075Z</time></trkpt><trkpt lat="51.4945567" lon="-0.1232967"><ele>3.0</ele><time>2026-04-15T09:24:27.081Z</time></trkpt><trkpt lat="51.49457" lon="-0.123435"><ele>3.0</ele><time>2026-04-15T09:24:28.076Z</time></trkpt><trkpt lat="51.4945833" lon="-0.123565"><ele>3.0</ele><time>2026-04-15T09:24:29.076Z</time></trkpt><trkpt lat="51.494595" lon="-0.1236917"><ele>3.0</ele><time>2026-04-15T09:24:30.076Z</time></trkpt><trkpt lat="51.49461" lon="-0.1238167"><ele>3.0</ele><time>2026-04-15T09:24:31.077Z</time></trkpt><trkpt lat="51.4946233" lon="-0.1239383"><ele>2.9999999999999996</ele><time>2026-04-15T09:24:32.081Z</time></trkpt><trkpt lat="51.4946383" lon="-0.1240533"><ele>3.0</ele><time>2026-04-15T09:24:33.079Z</time></trkpt><trkpt lat="51.49465" lon="-0.1241717"><ele>3.0</ele><time>2026-04-15T09:24:34.079Z</time></trkpt><trkpt lat="51.49466" lon="-0.1242833"><ele>3.0</ele><time>2026-04-15T09:24:35.08Z</time></trkpt><trkpt lat="51.4946683" lon="-0.1243917"><ele>3.0</ele><time>2026-04-15T09:24:36.076Z</time></trkpt><trkpt lat="51.4946783" lon="-0.1244983"><ele>2.9999999999999996</ele><time>2026-04-15T09:24:37.082Z</time></trkpt><trkpt lat="51.4946917" lon="-0.1246"><ele>3.0</ele><time>2026-04-15T09:24:38.079Z</time></trkpt><trkpt lat="51.494715" lon="-0.1247483"><ele>3.0</ele><time>2026-04-15T09:24:40.077Z</time></trkpt><trkpt lat="51.49474" lon="-0.1248417"><ele>3.0</ele><time>2026-04-15T09:24:43.077Z</time></trkpt><trkpt lat="51.494765" lon="-0.1250383"><ele>3.0</ele><time>2026-04-15T09:24:52.076Z</time></trkpt><trkpt lat="51.494795" lon="-0.1251317"><ele>3.0</ele><time>2026-04-15T09:24:53.077Z</time></trkpt><trkpt lat="51.4948817" lon="-0.1252467"><ele>3.0</ele><time>2026-04-15T09:24:55.078Z</time></trkpt><trkpt lat="51.494945" lon="-0.1252667"><ele>3.0</ele><time>2026-04-15T09:24:56.076Z</time></trkpt><trkpt lat="51.4950283" lon="-0.12527"><ele>5.199999999999999</ele><time>2026-04-15T09:24:57.077Z</time></trkpt><trkpt lat="51.4951183" lon="-0.1252733"><ele>7.3999999999999995</ele><time>2026-04-15T09:24:58.076Z</time></trkpt><trkpt lat="51.49521" lon="-0.1252717"><ele>9.599999999999998</ele><time>2026-04-15T09:24:59.079Z</time></trkpt><trkpt lat="51.4953167" lon="-0.125285"><ele>11.799999999999999</ele><time>2026-04-15T09:25:00.076Z</time></trkpt><trkpt lat="51.495415" lon="-0.1253117"><ele>14.0</ele><time>2026-04-15T09:25:01.076Z</time></trkpt><trkpt lat="51.495525" lon="-0.1253317"><ele>14.0</ele><time>2026-04-15T09:25:02.076Z</time></trkpt><trkpt lat="51.4956267" lon="-0.1253417"><ele>13.999999999999998</ele><time>2026-04-15T09:25:03.076Z</time></trkpt><trkpt lat="51.4957233" lon="-0.125355"><ele>13.999999999999998</ele><time>2026-04-15T09:25:04.077Z</time></trkpt><trkpt lat="51.4958167" lon="-0.1253667"><ele>14.0</ele><time>2026-04-15T09:25:05.076Z</time></trkpt><trkpt lat="51.4959133" lon="-0.1253833"><ele>14.0</ele><time>2026-04-15T09:25:06.076Z</time></trkpt><trkpt lat="51.496015" lon="-0.1254167"><ele>14.0</ele><time>2026-04-15T09:25:07.078Z</time></trkpt><trkpt lat="51.496115" lon="-0.1254383"><ele>13.999999999999998</ele><time>2026-04-15T09:25:08.077Z</time></trkpt><trkpt lat="51.4962133" lon="-0.12546"><ele>13.999999999999998</ele><time>2026-04-15T09:25:09.076Z</time></trkpt><trkpt lat="51.49631" lon="-0.12548"><ele>14.0</ele><time>2026-04-15T09:25:10.076Z</time></trkpt><trkpt lat="51.4964033" lon="-0.1254883"><ele>14.0</ele><time>2026-04-15T09:25:11.077Z</time></trkpt><trkpt lat="51.4964883" lon="-0.1254967"><ele>12.666666666666668</ele><time>2026-04-15T09:25:12.079Z</time></trkpt><trkpt lat="51.4965717" lon="-0.12551"><ele>11.333333333333334</ele><time>2026-04-15T09:25:13.077Z</time></trkpt><trkpt lat="51.49665" lon="-0.1255267"><ele>10.0</ele><time>2026-04-15T09:25:14.076Z</time></trkpt><trkpt lat="51.4967217" lon="-0.125545"><ele>8.666666666666668</ele><time>2026-04-15T09:25:15.077Z</time></trkpt><trkpt lat="51.49679" lon="-0.1255567"><ele>7.333333333333334</ele><time>2026-04-15T09:25:16.076Z</time></trkpt><trkpt lat="51.496855" lon="-0.125585"><ele>6.0</ele><time>2026-04-15T09:25:17.077Z</time></trkpt><trkpt lat="51.4969633" lon="-0.12562"><ele>6.0</ele><time>2026-04-15T09:25:19.077Z</time></trkpt><trkpt lat="51.497045" lon="-0.1256217"><ele>6.0</ele><time>2026-04-15T09:25:21.076Z</time></trkpt><trkpt lat="51.497115" lon="-0.1256633"><ele>6.0</ele><time>2026-04-15T09:25:23.078Z</time></trkpt><trkpt lat="51.4971817" lon="-0.1256917"><ele>6.0</ele><time>2026-04-15T09:25:25.076Z</time></trkpt><trkpt lat="51.4972517" lon="-0.1257033"><ele>6.0</ele><time>2026-04-15T09:25:28.078Z</time></trkpt><trkpt lat="51.49735" lon="-0.1256883"><ele>6.0</ele><time>2026-04-15T09:25:38.076Z</time></trkpt><trkpt lat="51.49742" lon="-0.1256883"><ele>6.0</ele><time>2026-04-15T09:25:39.078Z</time></trkpt><trkpt lat="51.4975067" lon="-0.1256933"><ele>6.0</ele><time>2026-04-15T09:25:40.076Z</time></trkpt><trkpt lat="51.4976" lon="-0.1256967"><ele>6.0</ele><time>2026-04-15T09:25:41.079Z</time></trkpt><trkpt lat="51.4976933" lon="-0.1256967"><ele>6.0</ele><time>2026-04-15T09:25:42.077Z</time></trkpt><trkpt lat="51.4977867" lon="-0.125695"><ele>6.0</ele><time>2026-04-15T09:25:43.077Z</time></trkpt><trkpt lat="51.497875" lon="-0.1256883"><ele>6.166666666666667</ele><time>2026-04-15T09:25:44.076Z</time></trkpt><trkpt lat="51.4979617" lon="-0.12569"><ele>6.333333333333334</ele><time>2026-04-15T09:25:45.076Z</time></trkpt><trkpt lat="51.4980483" lon="-0.1256933"><ele>6.5</ele><time>2026-04-15T09:25:46.077Z</time></trkpt><trkpt lat="51.4981267" lon="-0.1256967"><ele>6.666666666666667</ele><time>2026-04-15T09:25:47.078Z</time></trkpt><trkpt lat="51.4981967" lon="-0.1257067"><ele>6.833333333333334</ele><time>2026-04-15T09:25:48.077Z</time></trkpt><trkpt lat="51.4983167" lon="-0.1257383"><ele>7.0</ele><time>2026-04-15T09:25:50.078Z</time></trkpt><trkpt lat="51.4983867" lon="-0.1257467"><ele>7.500000000000001</ele><time>2026-04-15T09:25:51.076Z</time></trkpt><trkpt lat="51.4984567" lon="-0.12575"><ele>8.0</ele><time>2026-04-15T09:25:52.076Z</time></trkpt><trkpt lat="51.4985583" lon="-0.1257417"><ele>8.5</ele><time>2026-04-15T09:25:54.077Z</time></trkpt><trkpt lat="51.498625" lon="-0.1258"><ele>9.0</ele><time>2026-04-15T09:26:16.079Z</time></trkpt><trkpt lat="51.4987317" lon="-0.1258383"><ele>9.5</ele><time>2026-04-15T09:26:18.077Z</time></trkpt><trkpt lat="51.4987983" lon="-0.1258683"><ele>10.0</ele><time>2026-04-15T09:26:19.081Z</time></trkpt><trkpt lat="51.498875" lon="-0.1259033"><ele>10.5</ele><time>2026-04-15T09:26:20.077Z</time></trkpt><trkpt lat="51.4989567" lon="-0.1259367"><ele>11.0</ele><time>2026-04-15T09:26:21.076Z</time></trkpt><trkpt lat="51.4990433" lon="-0.12597"><ele>11.5</ele><time>2026-04-15T09:26:22.078Z</time></trkpt><trkpt lat="51.49913" lon="-0.1260033"><ele>12.0</ele><time>2026-04-15T09:26:23.076Z</time></trkpt><trkpt lat="51.4992117" lon="-0.1260317"><ele>12.499999999999998</ele><time>2026-04-15T09:26:24.078Z</time></trkpt><trkpt lat="51.4992917" lon="-0.1260583"><ele>13.0</ele><time>2026-04-15T09:26:25.076Z</time></trkpt><trkpt lat="51.4993667" lon="-0.1260917"><ele>12.999999999999998</ele><time>2026-04-15T09:26:26.076Z</time></trkpt><trkpt lat="51.4994383" lon="-0.12612"><ele>13.0</ele><time>2026-04-15T09:26:27.077Z</time></trkpt><trkpt lat="51.4995067" lon="-0.1261483"><ele>13.0</ele><time>2026-04-15T09:26:28.077Z</time></trkpt><trkpt lat="51.4995767" lon="-0.1261633"><ele>13.0</ele><time>2026-04-15T09:26:29.079Z</time></trkpt><trkpt lat="51.4996467" lon="-0.1261717"><ele>12.999999999999998</ele><time>2026-04-15T09:26:30.077Z</time></trkpt><trkpt lat="51.4997117" lon="-0.1261767"><ele>13.0</ele><time>2026-04-15T09:26:31.077Z</time></trkpt><trkpt lat="51.4998217" lon="-0.12618"><ele>12.666666666666666</ele><time>2026-04-15T09:26:33.076Z</time></trkpt><trkpt lat="51.499935" lon="-0.126155"><ele>12.333333333333332</ele><time>2026-04-15T09:27:12.077Z</time></trkpt><trkpt lat="51.500055" lon="-0.1261767"><ele>12.0</ele><time>2026-04-15T09:27:14.076Z</time></trkpt><trkpt lat="51.5001117" lon="-0.1262217"><ele>11.666666666666666</ele><time>2026-04-15T09:27:15.078Z</time></trkpt><trkpt lat="51.5001617" lon="-0.126295"><ele>11.333333333333332</ele><time>2026-04-15T09:27:16.077Z</time></trkpt><trkpt lat="51.5002017" lon="-0.1263817"><ele>11.0</ele><time>2026-04-15T09:27:17.078Z</time></trkpt><trkpt lat="51.5002267" lon="-0.1264817"><ele>11.5</ele><time>2026-04-15T09:27:18.077Z</time></trkpt><trkpt lat="51.500235" lon="-0.126605"><ele>12.0</ele><time>2026-04-15T09:27:19.078Z</time></trkpt><trkpt lat="51.5002383" lon="-0.12674"><ele>12.5</ele><time>2026-04-15T09:27:20.077Z</time></trkpt><trkpt lat="51.5002433" lon="-0.12687"><ele>13.0</ele><time>2026-04-15T09:27:21.076Z</time></trkpt><trkpt lat="51.5002433" lon="-0.1269933"><ele>13.500000000000002</ele><time>2026-04-15T09:27:22.079Z</time></trkpt><trkpt lat="51.5002433" lon="-0.1271167"><ele>14.0</ele><time>2026-04-15T09:27:23.078Z</time></trkpt><trkpt lat="51.500245" lon="-0.1272267"><ele>14.333333333333334</ele><time>2026-04-15T09:27:24.077Z</time></trkpt><trkpt lat="51.5002983" lon="-0.1274183"><ele>14.666666666666668</ele><time>2026-04-15T09:27:26.076Z</time></trkpt><trkpt lat="51.50034" lon="-0.127505"><ele>15.0</ele><time>2026-04-15T09:27:27.077Z</time></trkpt><trkpt lat="51.5003917" lon="-0.127575"><ele>15.333333333333332</ele><time>2026-04-15T09:27:28.077Z</time></trkpt><trkpt lat="51.5004667" lon="-0.12761"><ele>15.666666666666666</ele><time>2026-04-15T09:27:29.078Z</time></trkpt><trkpt lat="51.5005667" lon="-0.1276367"><ele>16.0</ele><time>2026-04-15T09:27:30.078Z</time></trkpt><trkpt lat="51.500675" lon="-0.1276367"><ele>16.25</ele><time>2026-04-15T09:27:31.078Z</time></trkpt><trkpt lat="51.500795" lon="-0.12759"><ele>16.5</ele><time>2026-04-15T09:27:32.078Z</time></trkpt><trkpt lat="51.5008933" lon="-0.1275117"><ele>16.75</ele><time>2026-04-15T09:27:33.076Z</time></trkpt><trkpt lat="51.50098" lon="-0.1274183"><ele>17.0</ele><time>2026-04-15T09:27:34.077Z</time></trkpt><trkpt lat="51.5010717" lon="-0.12724"><ele>17.0</ele><time>2026-04-15T09:27:35.078Z</time></trkpt><trkpt lat="51.501115" lon="-0.127045"><ele>17.0</ele><time>2026-04-15T09:27:36.077Z</time></trkpt><trkpt lat="51.5011133" lon="-0.126855"><ele>17.0</ele><time>2026-04-15T09:27:37.076Z</time></trkpt><trkpt lat="51.5010967" lon="-0.1266933"><ele>17.0</ele><time>2026-04-15T09:27:38.078Z</time></trkpt><trkpt lat="51.5011" lon="-0.1265583"><ele>17.0</ele><time>2026-04-15T09:27:39.077Z</time></trkpt><trkpt lat="51.5011083" lon="-0.1264283"><ele>16.833333333333336</ele><time>2026-04-15T09:27:40.077Z</time></trkpt><trkpt lat="51.5011433" lon="-0.12634"><ele>16.666666666666668</ele><time>2026-04-15T09:27:41.077Z</time></trkpt><trkpt lat="51.5012467" lon="-0.1262533"><ele>16.5</ele><time>2026-04-15T09:27:43.077Z</time></trkpt><trkpt lat="51.5013317" lon="-0.12627"><ele>16.333333333333332</ele><time>2026-04-15T09:27:44.076Z</time></trkpt><trkpt lat="51.5013983" lon="-0.12626"><ele>16.166666666666664</ele><time>2026-04-15T09:27:45.08Z</time></trkpt><trkpt lat="51.5014633" lon="-0.1262517"><ele>16.0</ele><time>2026-04-15T09:27:46.079Z</time></trkpt><trkpt lat="51.5015283" lon="-0.1262517"><ele>16.400000000000002</ele><time>2026-04-15T09:27:47.078Z</time></trkpt><trkpt lat="51.5015967" lon="-0.12624"><ele>16.8</ele><time>2026-04-15T09:27:48.077Z</time></trkpt><trkpt lat="51.501665" lon="-0.1262267"><ele>17.200000000000003</ele><time>2026-04-15T09:27:49.075Z</time></trkpt><trkpt lat="51.5017833" lon="-0.1262167"><ele>17.6</ele><time>2026-04-15T09:27:51.075Z</time></trkpt><trkpt lat="51.50189" lon="-0.1262217"><ele>18.0</ele><time>2026-04-15T09:27:53.076Z</time></trkpt><trkpt lat="51.501995" lon="-0.1262133"><ele>17.4</ele><time>2026-04-15T09:27:55.076Z</time></trkpt><trkpt lat="51.502105" lon="-0.1261733"><ele>16.8</ele><time>2026-04-15T09:27:57.078Z</time></trkpt><trkpt lat="51.5022233" lon="-0.1261467"><ele>16.2</ele><time>2026-04-15T09:27:59.077Z</time></trkpt><trkpt lat="51.50229" lon="-0.1261367"><ele>15.6</ele><time>2026-04-15T09:28:00.076Z</time></trkpt><trkpt lat="51.50239" lon="-0.126115"><ele>15.0</ele><time>2026-04-15T09:28:01.077Z</time></trkpt><trkpt lat="51.5024533" lon="-0.1261333"><ele>15.0</ele><time>2026-04-15T09:28:02.076Z</time></trkpt><trkpt lat="51.5025667" lon="-0.1261583"><ele>15.0</ele><time>2026-04-15T09:28:04.083Z</time></trkpt><trkpt lat="51.5026567" lon="-0.1261667"><ele>15.0</ele><time>2026-04-15T09:28:06.08Z</time></trkpt><trkpt lat="51.50274" lon="-0.1261867"><ele>15.0</ele><time>2026-04-15T09:28:08.076Z</time></trkpt><trkpt lat="51.5028183" lon="-0.1261867"><ele>15.0</ele><time>2026-04-15T09:28:10.076Z</time></trkpt><trkpt lat="51.5029167" lon="-0.1261817"><ele>15.6</ele><time>2026-04-15T09:28:12.077Z</time></trkpt><trkpt lat="51.50304" lon="-0.126165"><ele>16.2</ele><time>2026-04-15T09:28:14.078Z</time></trkpt><trkpt lat="51.503115" lon="-0.1261683"><ele>16.8</ele><time>2026-04-15T09:28:15.076Z</time></trkpt><trkpt lat="51.5031933" lon="-0.1261717"><ele>17.4</ele><time>2026-04-15T09:28:16.077Z</time></trkpt><trkpt lat="51.50328" lon="-0.1261733"><ele>18.0</ele><time>2026-04-15T09:28:17.077Z</time></trkpt><trkpt lat="51.5033667" lon="-0.126185"><ele>18.0</ele><time>2026-04-15T09:28:18.077Z</time></trkpt><trkpt lat="51.5034517" lon="-0.1262033"><ele>18.0</ele><time>2026-04-15T09:28:19.078Z</time></trkpt><trkpt lat="51.50354" lon="-0.1261983"><ele>18.0</ele><time>2026-04-15T09:28:20.076Z</time></trkpt><trkpt lat="51.5036317" lon="-0.1262017"><ele>18.0</ele><time>2026-04-15T09:28:21.075Z</time></trkpt><trkpt lat="51.503725" lon="-0.12621"><ele>18.0</ele><time>2026-04-15T09:28:22.077Z</time></trkpt><trkpt lat="51.503825" lon="-0.1262233"><ele>17.2</ele><time>2026-04-15T09:28:23.076Z</time></trkpt><trkpt lat="51.503925" lon="-0.1262333"><ele>16.4</ele><time>2026-04-15T09:28:24.077Z</time></trkpt><trkpt lat="51.504025" lon="-0.1262467"><ele>15.599999999999998</ele><time>2026-04-15T09:28:25.076Z</time></trkpt><trkpt lat="51.5041267" lon="-0.1262617"><ele>14.799999999999999</ele><time>2026-04-15T09:28:26.076Z</time></trkpt><trkpt lat="51.50423" lon="-0.1262933"><ele>14.0</ele><time>2026-04-15T09:28:27.075Z</time></trkpt><trkpt lat="51.5043283" lon="-0.12632"><ele>14.0</ele><time>2026-04-15T09:28:28.078Z</time></trkpt><trkpt lat="51.5044283" lon="-0.12635"><ele>13.999999999999998</ele><time>2026-04-15T09:28:29.078Z</time></trkpt><trkpt lat="51.5045333" lon="-0.1263883"><ele>13.999999999999998</ele><time>2026-04-15T09:28:30.076Z</time></trkpt><trkpt lat="51.5046417" lon="-0.1264283"><ele>14.0</ele><time>2026-04-15T09:28:31.076Z</time></trkpt><trkpt lat="51.5047533" lon="-0.126465"><ele>14.0</ele><time>2026-04-15T09:28:32.076Z</time></trkpt><trkpt lat="51.5048583" lon="-0.1265"><ele>14.0</ele><time>2026-04-15T09:28:33.075Z</time></trkpt><trkpt lat="51.5049567" lon="-0.1265333"><ele>13.999999999999998</ele><time>2026-04-15T09:28:34.076Z</time></trkpt><trkpt lat="51.5050517" lon="-0.1265717"><ele>13.999999999999998</ele><time>2026-04-15T09:28:35.075Z</time></trkpt><trkpt lat="51.50515" lon="-0.1266083"><ele>14.0</ele><time>2026-04-15T09:28:36.076Z</time></trkpt><trkpt lat="51.505245" lon="-0.1266483"><ele>14.0</ele><time>2026-04-15T09:28:37.076Z</time></trkpt><trkpt lat="51.5053383" lon="-0.1266867"><ele>14.666666666666668</ele><time>2026-04-15T09:28:38.076Z</time></trkpt><trkpt lat="51.5054283" lon="-0.1267217"><ele>15.333333333333334</ele><time>2026-04-15T09:28:39.075Z</time></trkpt><trkpt lat="51.5055167" lon="-0.1267567"><ele>16.0</ele><time>2026-04-15T09:28:40.076Z</time></trkpt><trkpt lat="51.5055983" lon="-0.126795"><ele>16.666666666666668</ele><time>2026-04-15T09:28:41.076Z</time></trkpt><trkpt lat="51.5056717" lon="-0.1268267"><ele>17.333333333333332</ele><time>2026-04-15T09:28:42.076Z</time></trkpt><trkpt lat="51.5057667" lon="-0.1268633"><ele>18.0</ele><time>2026-04-15T09:28:44.077Z</time></trkpt><trkpt lat="51.5058417" lon="-0.1268783"><ele>18.0</ele><time>2026-04-15T09:29:01.079Z</time></trkpt><trkpt lat="51.5059217" lon="-0.1269167"><ele>18.0</ele><time>2026-04-15T09:29:03.078Z</time></trkpt><trkpt lat="51.5059933" lon="-0.1269633"><ele>18.0</ele><time>2026-04-15T09:29:05.079Z</time></trkpt><trkpt lat="51.506065" lon="-0.1270117"><ele>18.0</ele><time>2026-04-15T09:29:08.079Z</time></trkpt><trkpt lat="51.5061317" lon="-0.12705"><ele>18.0</ele><time>2026-04-15T09:29:12.078Z</time></trkpt><trkpt lat="51.5061983" lon="-0.1270567"><ele>18.0</ele><time>2026-04-15T09:29:15.079Z</time></trkpt><trkpt lat="51.50628" lon="-0.1270967"><ele>18.4</ele><time>2026-04-15T09:29:32.078Z</time></trkpt><trkpt lat="51.5063567" lon="-0.1271333"><ele>18.8</ele><time>2026-04-15T09:29:34.081Z</time></trkpt><trkpt lat="51.5064533" lon="-0.127195"><ele>19.2</ele><time>2026-04-15T09:29:36.078Z</time></trkpt><trkpt lat="51.506565" lon="-0.1272367"><ele>19.6</ele><time>2026-04-15T09:29:38.078Z</time></trkpt><trkpt lat="51.506675" lon="-0.1272867"><ele>20.0</ele><time>2026-04-15T09:29:40.078Z</time></trkpt><trkpt lat="51.5067783" lon="-0.12733"><ele>20.0</ele><time>2026-04-15T09:29:42.079Z</time></trkpt><trkpt lat="51.5068733" lon="-0.1273617"><ele>20.0</ele><time>2026-04-15T09:29:44.076Z</time></trkpt><trkpt lat="51.5069483" lon="-0.1273917"><ele>20.0</ele><time>2026-04-15T09:29:46.08Z</time></trkpt><trkpt lat="51.507025" lon="-0.12747"><ele>20.0</ele><time>2026-04-15T09:29:50.078Z</time></trkpt><trkpt lat="51.5070867" lon="-0.127585"><ele>20.0</ele><time>2026-04-15T09:29:52.077Z</time></trkpt><trkpt lat="51.5071267" lon="-0.1276683"><ele>20.0</ele><time>2026-04-15T09:29:53.078Z</time></trkpt><trkpt lat="51.5071767" lon="-0.1277733"><ele>19.833333333333336</ele><time>2026-04-15T09:29:54.079Z</time></trkpt><trkpt lat="51.5072233" lon="-0.1278767"><ele>19.666666666666668</ele><time>2026-04-15T09:29:55.081Z</time></trkpt><trkpt lat="51.5072633" lon="-0.1279683"><ele>19.5</ele><time>2026-04-15T09:29:56.077Z</time></trkpt><trkpt lat="51.5073333" lon="-0.1281"><ele>19.333333333333332</ele><time>2026-04-15T09:29:58.078Z</time></trkpt><trkpt lat="51.5073867" lon="-0.1282017"><ele>19.166666666666664</ele><time>2026-04-15T09:30:01.079Z</time></trkpt><trkpt lat="51.507415" lon="-0.1283117"><ele>19.0</ele><time>2026-04-15T09:30:06.077Z</time></trkpt><trkpt lat="51.5074483" lon="-0.1284233"><ele>18.599999999999998</ele><time>2026-04-15T09:30:09.077Z</time></trkpt><trkpt lat="51.5074683" lon="-0.128525"><ele>18.2</ele><time>2026-04-15T09:30:26.077Z</time></trkpt><trkpt lat="51.5074733" lon="-0.1287083"><ele>17.799999999999997</ele><time>2026-04-15T09:30:28.075Z</time></trkpt><trkpt lat="51.5074733" lon="-0.12885"><ele>17.4</ele><time>2026-04-15T09:30:29.075Z</time></trkpt><trkpt lat="51.5074917" lon="-0.12902"><ele>17.0</ele><time>2026-04-15T09:30:30.08Z</time></trkpt><trkpt lat="51.5075083" lon="-0.1291717"><ele>17.666666666666668</ele><time>2026-04-15T09:30:31.076Z</time></trkpt><trkpt lat="51.507525" lon="-0.129325"><ele>18.333333333333336</ele><time>2026-04-15T09:30:32.075Z</time></trkpt><trkpt lat="51.507545" lon="-0.1294867"><ele>19.0</ele><time>2026-04-15T09:30:33.075Z</time></trkpt><trkpt lat="51.5075583" lon="-0.1296233"><ele>19.666666666666668</ele><time>2026-04-15T09:30:34.075Z</time></trkpt><trkpt lat="51.5075583" lon="-0.1297467"><ele>20.333333333333332</ele><time>2026-04-15T09:30:35.076Z</time></trkpt><trkpt lat="51.5075733" lon="-0.1298767"><ele>21.0</ele><time>2026-04-15T09:30:36.077Z</time></trkpt><trkpt lat="51.5075883" lon="-0.1299933"><ele>21.5</ele><time>2026-04-15T09:30:37.075Z</time></trkpt><trkpt lat="51.5075933" lon="-0.1301183"><ele>22.0</ele><time>2026-04-15T09:30:38.078Z</time></trkpt><trkpt lat="51.5076" lon="-0.1302317"><ele>22.5</ele><time>2026-04-15T09:30:39.075Z</time></trkpt><trkpt lat="51.5076117" lon="-0.13035"><ele>23.0</ele><time>2026-04-15T09:30:40.076Z</time></trkpt><trkpt lat="51.50762" lon="-0.1304533"><ele>23.5</ele><time>2026-04-15T09:30:41.075Z</time></trkpt><trkpt lat="51.5076317" lon="-0.1306183"><ele>24.0</ele><time>2026-04-15T09:30:43.08Z</time></trkpt><trkpt lat="51.5076517" lon="-0.1307267"><ele>24.166666666666668</ele><time>2026-04-15T09:30:45.075Z</time></trkpt><trkpt lat="51.5076633" lon="-0.1308467"><ele>24.333333333333336</ele><time>2026-04-15T09:30:48.077Z</time></trkpt><trkpt lat="51.507665" lon="-0.1309767"><ele>24.5</ele><time>2026-04-15T09:30:52.075Z</time></trkpt><trkpt lat="51.5076383" lon="-0.13107"><ele>24.666666666666668</ele><time>2026-04-15T09:30:55.076Z</time></trkpt><trkpt lat="51.50757" lon="-0.1311883"><ele>24.833333333333336</ele><time>2026-04-15T09:30:58.075Z</time></trkpt><trkpt lat="51.5075517" lon="-0.1313083"><ele>25.0</ele><time>2026-04-15T09:30:59.076Z</time></trkpt><trkpt lat="51.5075133" lon="-0.1314617"><ele>25.4</ele><time>2026-04-15T09:31:00.076Z</time></trkpt><trkpt lat="51.5074633" lon="-0.1316183"><ele>25.8</ele><time>2026-04-15T09:31:01.075Z</time></trkpt><trkpt lat="51.5073983" lon="-0.131785"><ele>26.200000000000003</ele><time>2026-04-15T09:31:02.075Z</time></trkpt><trkpt lat="51.507355" lon="-0.1319367"><ele>26.6</ele><time>2026-04-15T09:31:03.075Z</time></trkpt><trkpt lat="51.5073333" lon="-0.1320483"><ele>27.0</ele><time>2026-04-15T09:31:04.077Z</time></trkpt><trkpt lat="51.5072783" lon="-0.1322317"><ele>27.0</ele><time>2026-04-15T09:31:06.075Z</time></trkpt><trkpt lat="51.5072433" lon="-0.1323183"><ele>27.0</ele><time>2026-04-15T09:31:07.075Z</time></trkpt><trkpt lat="51.5071933" lon="-0.1324667"><ele>27.0</ele><time>2026-04-15T09:31:09.076Z</time></trkpt><trkpt lat="51.5071883" lon="-0.1325867"><ele>27.0</ele><time>2026-04-15T09:31:11.075Z</time></trkpt><trkpt lat="51.50724" lon="-0.132695"><ele>27.0</ele><time>2026-04-15T09:31:13.075Z</time></trkpt><trkpt lat="51.507335" lon="-0.1327667"><ele>27.0</ele><time>2026-04-15T09:31:15.075Z</time></trkpt><trkpt lat="51.5074233" lon="-0.1328483"><ele>26.6</ele><time>2026-04-15T09:31:17.075Z</time></trkpt><trkpt lat="51.5075117" lon="-0.1329067"><ele>26.200000000000003</ele><time>2026-04-15T09:31:19.076Z</time></trkpt><trkpt lat="51.5076083" lon="-0.1329633"><ele>25.8</ele><time>2026-04-15T09:31:21.075Z</time></trkpt><trkpt lat="51.50771" lon="-0.1330383"><ele>25.4</ele><time>2026-04-15T09:31:23.076Z</time></trkpt><trkpt lat="51.50782" lon="-0.13312"><ele>25.0</ele><time>2026-04-15T09:31:25.076Z</time></trkpt><trkpt lat="51.5078767" lon="-0.133165"><ele>25.571428571428573</ele><time>2026-04-15T09:31:26.075Z</time></trkpt><trkpt lat="51.5079333" lon="-0.1332183"><ele>26.142857142857146</ele><time>2026-04-15T09:31:27.076Z</time></trkpt><trkpt lat="51.5079933" lon="-0.13327"><ele>26.714285714285715</ele><time>2026-04-15T09:31:28.075Z</time></trkpt><trkpt lat="51.5080567" lon="-0.13332"><ele>27.28571428571429</ele><time>2026-04-15T09:31:29.075Z</time></trkpt><trkpt lat="51.5081117" lon="-0.1333717"><ele>27.857142857142858</ele><time>2026-04-15T09:31:30.075Z</time></trkpt><trkpt lat="51.5081683" lon="-0.13342"><ele>28.428571428571434</ele><time>2026-04-15T09:31:31.075Z</time></trkpt><trkpt lat="51.5082317" lon="-0.1334767"><ele>29.000000000000004</ele><time>2026-04-15T09:31:32.075Z</time></trkpt><trkpt lat="51.5082983" lon="-0.1335333"><ele>28.999999999999996</ele><time>2026-04-15T09:31:33.075Z</time></trkpt><trkpt lat="51.508365" lon="-0.133585"><ele>29.0</ele><time>2026-04-15T09:31:34.075Z</time></trkpt><trkpt lat="51.5084317" lon="-0.13363"><ele>29.0</ele><time>2026-04-15T09:31:35.076Z</time></trkpt><trkpt lat="51.50849" lon="-0.13367"><ele>29.0</ele><time>2026-04-15T09:31:36.076Z</time></trkpt><trkpt lat="51.5085817" lon="-0.13372"><ele>28.999999999999996</ele><time>2026-04-15T09:31:38.076Z</time></trkpt><trkpt lat="51.50866" lon="-0.1337033"><ele>29.0</ele><time>2026-04-15T09:31:40.075Z</time></trkpt><trkpt lat="51.5087483" lon="-0.1335933"><ele>29.499999999999996</ele><time>2026-04-15T09:31:42.076Z</time></trkpt><trkpt lat="51.508795" lon="-0.1334917"><ele>30.0</ele><time>2026-04-15T09:31:43.077Z</time></trkpt><trkpt lat="51.5088267" lon="-0.1333883"><ele>30.5</ele><time>2026-04-15T09:31:44.075Z</time></trkpt><trkpt lat="51.5088617" lon="-0.1332333"><ele>31.0</ele><time>2026-04-15T09:31:46.075Z</time></trkpt><trkpt lat="51.5088617" lon="-0.1330883"><ele>31.499999999999996</ele><time>2026-04-15T09:31:48.077Z</time></trkpt><trkpt lat="51.5088317" lon="-0.1329717"><ele>32.0</ele><time>2026-04-15T09:31:50.075Z</time></trkpt><trkpt lat="51.5088067" lon="-0.1328783"><ele>31.999999999999996</ele><time>2026-04-15T09:31:54.076Z</time></trkpt><trkpt lat="51.50889" lon="-0.132975"><ele>32.0</ele><time>2026-04-15T09:32:21.075Z</time></trkpt><trkpt lat="51.5088267" lon="-0.1330033"><ele>32.0</ele><time>2026-04-15T09:32:25.076Z</time></trkpt><trkpt lat="51.50873" lon="-0.1329617"><ele>32.0</ele><time>2026-04-15T09:32:28.082Z</time></trkpt><trkpt lat="51.5086333" lon="-0.1329017"><ele>31.999999999999996</ele><time>2026-04-15T09:32:31.076Z</time></trkpt><trkpt lat="51.5085717" lon="-0.1328683"><ele>32.0</ele><time>2026-04-15T09:32:35.076Z</time></trkpt><trkpt lat="51.5084933" lon="-0.13284"><ele>29.0</ele><time>2026-04-15T09:32:39.077Z</time></trkpt><trkpt lat="51.5084233" lon="-0.132815"><ele>29.0</ele><time>2026-04-15T09:32:42.077Z</time></trkpt><trkpt lat="51.5083438" lon="-0.1330183"><ele>29.0</ele><time>2026-04-15T09:32:50.274Z</time></trkpt></trkseg></trk></gpx>